Observation data for Fritch on 07/24/2019      Previous  Date       Current Mesonet Observations  Soil Data  Daily Summary Page  Observations in Plain Language
KFR1 240500Z 16008KT 22/12 A3026 RMK A01 T02160119  RH  054%=      5-min Rain = 0
KFR1 240501Z 15009KT 22/12 A3026 RMK A01 T02160119  RH  054%=      5-min Rain = 0
KFR1 240502Z 15007KT 22/12 A3026 RMK A01 T02160119  RH  054%=      5-min Rain = 0
KFR1 240503Z 15007KT 22/12 A3026 RMK A01 T02160119  RH  054%=      5-min Rain = 0
KFR1 240504Z 15007KT 22/12 A3026 RMK A01 T02160119  RH  054%=      5-min Rain = 0
KFR1 240505Z 15008KT 22/12 A3026 RMK A01 T02160120  RH  054%=      5-min Rain = 0
KFR1 240506Z 15007KT 22/12 A3026 RMK A01 T02160120  RH  054%=      5-min Rain = 0
KFR1 240507Z 15008KT 22/12 A3026 RMK A01 T02160120  RH  054%=      5-min Rain = 0
KFR1 240508Z 15008KT 22/12 A3026 RMK A01 T02150120  RH  054%=      5-min Rain = 0
KFR1 240509Z 16008KT 22/12 A3026 RMK A01 T02150120  RH  055%=      5-min Rain = 0
KFR1 240510Z 16009KT 21/12 A3026 RMK A01 T02140120  RH  055%=      5-min Rain = 0
KFR1 240511Z 16010KT 21/12 A3026 RMK A01 T02130120  RH  055%=      5-min Rain = 0
KFR1 240512Z 16009KT 21/12 A3026 RMK A01 T02130120  RH  055%=      5-min Rain = 0
KFR1 240513Z 16009KT 21/12 A3026 RMK A01 T02130120  RH  055%=      5-min Rain = 0
KFR1 240514Z 16009KT 21/12 A3026 RMK A01 T02130120  RH  055%=      5-min Rain = 0
KFR1 240515Z 15009KT 21/12 A3026 RMK A01 T02130120  RH  055%=      5-min Rain = 0
KFR1 240516Z 16010KT 21/12 A3026 RMK A01 T02120120  RH  055%=      5-min Rain = 0
KFR1 240517Z 15008KT 21/12 A3026 RMK A01 T02120120  RH  055%=      5-min Rain = 0
KFR1 240518Z 15007KT 21/12 A3026 RMK A01 T02120120  RH  056%=      5-min Rain = 0
KFR1 240519Z 16008KT 21/12 A3026 RMK A01 T02120120  RH  056%=      5-min Rain = 0
KFR1 240520Z 15008KT 21/12 A3026 RMK A01 T02120120  RH  056%=      5-min Rain = 0
KFR1 240521Z 16009KT 21/12 A3026 RMK A01 T02120120  RH  056%=      5-min Rain = 0
KFR1 240522Z 16008KT 21/12 A3026 RMK A01 T02110120  RH  056%=      5-min Rain = 0
KFR1 240523Z 16009KT 21/12 A3026 RMK A01 T02110120  RH  056%=      5-min Rain = 0
KFR1 240524Z 16010KT 21/12 A3026 RMK A01 T02110120  RH  056%=      5-min Rain = 0
KFR1 240525Z 17010KT 21/12 A3026 RMK A01 T02110120  RH  056%=      5-min Rain = 0
KFR1 240526Z 16009KT 21/12 A3026 RMK A01 T02100119  RH  056%=      5-min Rain = 0
KFR1 240527Z 16009KT 21/12 A3026 RMK A01 T02100119  RH  056%=      5-min Rain = 0
KFR1 240528Z 16010KT 21/12 A3026 RMK A01 T02100120  RH  056%=      5-min Rain = 0
KFR1 240529Z 16011KT 21/12 A3026 RMK A01 T02100119  RH  056%=      5-min Rain = 0
KFR1 240530Z 16010KT 21/12 A3026 RMK A01 T02110119  RH  056%=      5-min Rain = 0
KFR1 240531Z 16010KT 21/12 A3026 RMK A01 T02100119  RH  056%=      5-min Rain = 0
KFR1 240532Z 16010KT 21/12 A3026 RMK A01 T02110119  RH  056%=      5-min Rain = 0
KFR1 240533Z 16010KT 21/12 A3026 RMK A01 T02110118  RH  056%=      5-min Rain = 0
KFR1 240534Z 15008KT 21/12 A3026 RMK A01 T02110118  RH  055%=      5-min Rain = 0
KFR1 240535Z 15008KT 21/12 A3026 RMK A01 T02110119  RH  056%=      5-min Rain = 0
KFR1 240536Z 16007G12KT 21/12 A3026 RMK A01 T02110119  RH  056%=      5-min Rain = 0
KFR1 240537Z 15009KT 21/12 A3026 RMK A01 T02110118  RH  055%=      5-min Rain = 0
KFR1 240538Z 15009KT 21/12 A3026 RMK A01 T02110118  RH  055%=      5-min Rain = 0
KFR1 240539Z 15008KT 21/12 A3026 RMK A01 T02110118  RH  055%=      5-min Rain = 0
KFR1 240540Z 16009KT 21/12 A3026 RMK A01 T02110118  RH  055%=      5-min Rain = 0
KFR1 240541Z 16008KT 21/12 A3026 RMK A01 T02110118  RH  055%=      5-min Rain = 0
KFR1 240542Z 16009KT 21/12 A3026 RMK A01 T02100118  RH  055%=      5-min Rain = 0
KFR1 240543Z 16009KT 21/12 A3026 RMK A01 T02100118  RH  055%=      5-min Rain = 0
KFR1 240544Z 16008KT 21/12 A3026 RMK A01 T02100117  RH  055%=      5-min Rain = 0
KFR1 240545Z 16007KT 21/12 A3026 RMK A01 T02090117  RH  056%=      5-min Rain = 0
KFR1 240546Z 16008KT 21/12 A3026 RMK A01 T02090117  RH  056%=      5-min Rain = 0
KFR1 240547Z 16008KT 21/12 A3026 RMK A01 T02090117  RH  056%=      5-min Rain = 0
KFR1 240548Z 15008KT 21/12 A3026 RMK A01 T02090117  RH  056%=      5-min Rain = 0
KFR1 240549Z 15008KT 21/12 A3026 RMK A01 T02090117  RH  055%=      5-min Rain = 0
KFR1 240550Z 15009KT 21/12 A3026 RMK A01 T02090116  RH  055%=      5-min Rain = 0
KFR1 240551Z 15009KT 21/12 A3026 RMK A01 T02090116  RH  055%=      5-min Rain = 0
KFR1 240552Z 15008KT 21/12 A3026 RMK A01 T02100116  RH  055%=      5-min Rain = 0
KFR1 240553Z 15009KT 21/12 A3026 RMK A01 T02100116  RH  055%=      5-min Rain = 0
KFR1 240554Z 16010KT 21/12 A3026 RMK A01 T02100116  RH  055%=      5-min Rain = 0
KFR1 240555Z 16009KT 21/12 A3026 RMK A01 T02100116  RH  055%=      5-min Rain = 0
KFR1 240556Z 16009KT 21/12 A3026 RMK A01 T02090116  RH  055%=      5-min Rain = 0
KFR1 240557Z 16010KT 21/12 A3026 RMK A01 T02090116  RH  055%=      5-min Rain = 0
KFR1 240558Z 16009KT 21/12 A3026 RMK A01 T02090116  RH  055%=      5-min Rain = 0
KFR1 240559Z 16010KT 21/12 A3026 RMK A01 T02090116  RH  055%=      5-min Rain = 0
KFR1 240600Z 16010KT 21/12 A3026 RMK A01 T02090116  RH  055%=      5-min Rain = 0
KFR1 240601Z 16011KT 21/12 A3026 RMK A01 T02080116  RH  055%=      5-min Rain = 0
KFR1 240602Z 16009KT 21/12 A3026 RMK A01 T02080116  RH  055%=      5-min Rain = 0
KFR1 240603Z 16010KT 21/12 A3026 RMK A01 T02080116  RH  056%=      5-min Rain = 0
KFR1 240604Z 16009KT 21/12 A3026 RMK A01 T02080116  RH  056%=      5-min Rain = 0
KFR1 240605Z 16010KT 21/12 A3026 RMK A01 T02080116  RH  056%=      5-min Rain = 0
KFR1 240606Z 17010KT 21/12 A3026 RMK A01 T02070116  RH  056%=      5-min Rain = 0
KFR1 240607Z 16011KT 21/12 A3026 RMK A01 T02070116  RH  056%=      5-min Rain = 0
KFR1 240608Z 17009KT 21/12 A3026 RMK A01 T02070116  RH  056%=      5-min Rain = 0
KFR1 240609Z 17010KT 21/12 A3026 RMK A01 T02070116  RH  056%=      5-min Rain = 0
KFR1 240610Z 16009KT 21/12 A3026 RMK A01 T02070117  RH  056%=      5-min Rain = 0
KFR1 240611Z 16010KT 21/12 A3026 RMK A01 T02070117  RH  056%=      5-min Rain = 0
KFR1 240612Z 16009KT 21/12 A3026 RMK A01 T02070117  RH  056%=      5-min Rain = 0
KFR1 240613Z 16011KT 21/12 A3026 RMK A01 T02070117  RH  056%=      5-min Rain = 0
KFR1 240614Z 17010KT 21/12 A3026 RMK A01 T02060116  RH  056%=      5-min Rain = 0
KFR1 240615Z 16010KT 21/12 A3026 RMK A01 T02070117  RH  056%=      5-min Rain = 0
KFR1 240616Z 16010KT 21/12 A3026 RMK A01 T02060117  RH  056%=      5-min Rain = 0
KFR1 240617Z 17009KT 21/12 A3026 RMK A01 T02060117  RH  057%=      5-min Rain = 0
KFR1 240618Z 16012KT 21/12 A3026 RMK A01 T02060116  RH  056%=      5-min Rain = 0
KFR1 240619Z 17011KT 21/12 A3026 RMK A01 T02060116  RH  056%=      5-min Rain = 0
KFR1 240620Z 16011KT 21/12 A3026 RMK A01 T02070115  RH  056%=      5-min Rain = 0
KFR1 240621Z 16012KT 21/12 A3026 RMK A01 T02070115  RH  056%=      5-min Rain = 0
KFR1 240622Z 16012KT 21/12 A3026 RMK A01 T02080115  RH  055%=      5-min Rain = 0
KFR1 240623Z 17011KT 21/11 A3026 RMK A01 T02080114  RH  055%=      5-min Rain = 0
KFR1 240624Z 16012KT 21/11 A3026 RMK A01 T02090114  RH  055%=      5-min Rain = 0
KFR1 240625Z 17011KT 21/11 A3026 RMK A01 T02090113  RH  054%=      5-min Rain = 0
KFR1 240626Z 17011KT 21/11 A3026 RMK A01 T02090114  RH  054%=      5-min Rain = 0
KFR1 240627Z 17010KT 21/11 A3026 RMK A01 T02090114  RH  054%=      5-min Rain = 0
KFR1 240628Z 17011KT 21/11 A3026 RMK A01 T02090114  RH  054%=      5-min Rain = 0
KFR1 240629Z 16010KT 21/11 A3026 RMK A01 T02080114  RH  055%=      5-min Rain = 0
KFR1 240630Z 16010KT 21/11 A3026 RMK A01 T02070114  RH  055%=      5-min Rain = 0
KFR1 240631Z 16011KT 21/11 A3026 RMK A01 T02070113  RH  055%=      5-min Rain = 0
KFR1 240632Z 16011KT 21/11 A3026 RMK A01 T02060113  RH  055%=      5-min Rain = 0
KFR1 240633Z 16010KT 21/11 A3026 RMK A01 T02060113  RH  055%=      5-min Rain = 0
KFR1 240634Z 16011KT 21/11 A3026 RMK A01 T02060114  RH  055%=      5-min Rain = 0
KFR1 240635Z 16010KT 21/11 A3026 RMK A01 T02050113  RH  056%=      5-min Rain = 0
KFR1 240636Z 16010KT 21/11 A3026 RMK A01 T02050113  RH  056%=      5-min Rain = 0
KFR1 240637Z 16011KT 20/11 A3026 RMK A01 T02040113  RH  056%=      5-min Rain = 0
KFR1 240638Z 16011KT 20/11 A3026 RMK A01 T02040112  RH  055%=      5-min Rain = 0
KFR1 240639Z 16011KT 20/11 A3026 RMK A01 T02040112  RH  055%=      5-min Rain = 0
KFR1 240640Z 16011KT 21/11 A3026 RMK A01 T02050112  RH  055%=      5-min Rain = 0
KFR1 240641Z 16010KT 20/11 A3026 RMK A01 T02040111  RH  055%=      5-min Rain = 0
KFR1 240642Z 16011KT 20/11 A3026 RMK A01 T02040110  RH  055%=      5-min Rain = 0
KFR1 240643Z 17011KT 20/11 A3026 RMK A01 T02040110  RH  055%=      5-min Rain = 0
KFR1 240644Z 16011KT 21/11 A3026 RMK A01 T02050109  RH  054%=      5-min Rain = 0
KFR1 240645Z 16011KT 21/11 A3026 RMK A01 T02050109  RH  054%=      5-min Rain = 0
KFR1 240646Z 17011KT 21/11 A3026 RMK A01 T02050108  RH  054%=      5-min Rain = 0
KFR1 240647Z 16010KT 21/11 A3026 RMK A01 T02060108  RH  054%=      5-min Rain = 0
KFR1 240648Z 16011KT 21/11 A3026 RMK A01 T02050108  RH  053%=      5-min Rain = 0
KFR1 240649Z 17009KT 21/11 A3026 RMK A01 T02050108  RH  053%=      5-min Rain = 0
KFR1 240650Z 16009KT 21/11 A3026 RMK A01 T02050107  RH  053%=      5-min Rain = 0
KFR1 240651Z 17010KT 21/11 A3026 RMK A01 T02050107  RH  053%=      5-min Rain = 0
KFR1 240652Z 17009KT 21/11 A3026 RMK A01 T02050107  RH  053%=      5-min Rain = 0
KFR1 240653Z 16009KT 21/11 A3025 RMK A01 T02050107  RH  053%=      5-min Rain = 0
KFR1 240654Z 17011KT 21/11 A3025 RMK A01 T02050106  RH  053%=      5-min Rain = 0
KFR1 240655Z 17010KT 21/11 A3025 RMK A01 T02050106  RH  053%=      5-min Rain = 0
KFR1 240656Z 17011KT 21/11 A3025 RMK A01 T02050105  RH  053%=      5-min Rain = 0
KFR1 240657Z 17009KT 21/11 A3025 RMK A01 T02050105  RH  053%=      5-min Rain = 0
KFR1 240658Z 17009KT 20/11 A3025 RMK A01 T02040105  RH  053%=      5-min Rain = 0
KFR1 240659Z 17010KT 20/11 A3025 RMK A01 T02040105  RH  053%=      5-min Rain = 0
KFR1 240700Z 17010KT 20/11 A3025 RMK A01 T02040105  RH  053%=      5-min Rain = 0
KFR1 240701Z 17010KT 20/11 A3025 RMK A01 T02040105  RH  053%=      5-min Rain = 0
KFR1 240702Z 17011KT 20/11 A3025 RMK A01 T02040105  RH  053%=      5-min Rain = 0
KFR1 240703Z 16010KT 20/10 A3025 RMK A01 T02030104  RH  053%=      5-min Rain = 0
KFR1 240704Z 17011KT 20/11 A3025 RMK A01 T02040105  RH  053%=      5-min Rain = 0
KFR1 240705Z 17010KT 20/11 A3026 RMK A01 T02040105  RH  053%=      5-min Rain = 0
KFR1 240706Z 17009KT 20/10 A3026 RMK A01 T02030104  RH  053%=      5-min Rain = 0
KFR1 240707Z 17010KT 20/10 A3026 RMK A01 T02030104  RH  053%=      5-min Rain = 0
KFR1 240708Z 17009KT 20/10 A3026 RMK A01 T02030104  RH  053%=      5-min Rain = 0
KFR1 240709Z 17009KT 20/10 A3026 RMK A01 T02030104  RH  053%=      5-min Rain = 0
KFR1 240710Z 17011KT 20/10 A3026 RMK A01 T02020104  RH  053%=      5-min Rain = 0
KFR1 240711Z 17010KT 20/10 A3026 RMK A01 T02020103  RH  053%=      5-min Rain = 0
KFR1 240712Z 17009KT 20/10 A3026 RMK A01 T02020104  RH  053%=      5-min Rain = 0
KFR1 240713Z 17009KT 20/10 A3026 RMK A01 T02020104  RH  053%=      5-min Rain = 0
KFR1 240714Z 17009KT 20/10 A3026 RMK A01 T02020104  RH  053%=      5-min Rain = 0
KFR1 240715Z 16010KT 20/10 A3026 RMK A01 T02010103  RH  053%=      5-min Rain = 0
KFR1 240716Z 17010KT 20/10 A3026 RMK A01 T02010103  RH  053%=      5-min Rain = 0
KFR1 240717Z 16010KT 20/10 A3025 RMK A01 T02010103  RH  053%=      5-min Rain = 0
KFR1 240718Z 16011KT 20/10 A3025 RMK A01 T02010103  RH  053%=      5-min Rain = 0
KFR1 240719Z 16009KT 20/10 A3025 RMK A01 T02010103  RH  053%=      5-min Rain = 0
KFR1 240720Z 16010KT 20/10 A3025 RMK A01 T02010103  RH  053%=      5-min Rain = 0
KFR1 240721Z 16011KT 20/10 A3025 RMK A01 T02010103  RH  053%=      5-min Rain = 0
KFR1 240722Z 17010KT 20/10 A3025 RMK A01 T02010103  RH  053%=      5-min Rain = 0
KFR1 240723Z 17009KT 20/10 A3025 RMK A01 T02010102  RH  053%=      5-min Rain = 0
KFR1 240724Z 17009KT 20/10 A3025 RMK A01 T02000102  RH  053%=      5-min Rain = 0
KFR1 240725Z 17011KT 20/10 A3025 RMK A01 T02010102  RH  053%=      5-min Rain = 0
KFR1 240726Z 16009KT 20/10 A3025 RMK A01 T02000102  RH  053%=      5-min Rain = 0
KFR1 240727Z 16009KT 20/10 A3025 RMK A01 T02000102  RH  053%=      5-min Rain = 0
KFR1 240728Z 16011KT 20/10 A3025 RMK A01 T02000101  RH  053%=      5-min Rain = 0
KFR1 240729Z 16010KT 20/10 A3025 RMK A01 T02000101  RH  053%=      5-min Rain = 0
KFR1 240730Z 16010KT 20/10 A3025 RMK A01 T02000101  RH  053%=      5-min Rain = 0
KFR1 240731Z 16010KT 20/10 A3025 RMK A01 T02000101  RH  053%=      5-min Rain = 0
KFR1 240732Z 16010KT 20/10 A3025 RMK A01 T01990101  RH  053%=      5-min Rain = 0
KFR1 240733Z 16008KT 20/10 A3025 RMK A01 T01990101  RH  053%=      5-min Rain = 0
KFR1 240734Z 16009KT 20/10 A3025 RMK A01 T01990101  RH  053%=      5-min Rain = 0
KFR1 240735Z 16009KT 20/10 A3025 RMK A01 T01980101  RH  053%=      5-min Rain = 0
KFR1 240736Z 16009KT 20/10 A3025 RMK A01 T01980101  RH  054%=      5-min Rain = 0
KFR1 240737Z 16009KT 20/10 A3025 RMK A01 T01970101  RH  054%=      5-min Rain = 0
KFR1 240738Z 16010KT 20/10 A3025 RMK A01 T01970101  RH  054%=      5-min Rain = 0
KFR1 240739Z 16009KT 20/10 A3025 RMK A01 T01970101  RH  054%=      5-min Rain = 0
KFR1 240740Z 16010KT 20/10 A3025 RMK A01 T01970100  RH  053%=      5-min Rain = 0
KFR1 240741Z 16009KT 20/10 A3025 RMK A01 T01970100  RH  053%=      5-min Rain = 0
KFR1 240742Z 16010KT 20/10 A3025 RMK A01 T01970099  RH  053%=      5-min Rain = 0
KFR1 240743Z 16009KT 20/10 A3025 RMK A01 T01970099  RH  053%=      5-min Rain = 0
KFR1 240744Z 16009KT 20/10 A3025 RMK A01 T01980099  RH  053%=      5-min Rain = 0
KFR1 240745Z 16010KT 20/10 A3025 RMK A01 T01970099  RH  053%=      5-min Rain = 0
KFR1 240746Z 16009KT 20/10 A3025 RMK A01 T01980099  RH  053%=      5-min Rain = 0
KFR1 240747Z 17009KT 20/10 A3025 RMK A01 T01980099  RH  053%=      5-min Rain = 0
KFR1 240748Z 17010KT 20/10 A3025 RMK A01 T01970098  RH  053%=      5-min Rain = 0
KFR1 240749Z 17009KT 20/10 A3025 RMK A01 T01970099  RH  053%=      5-min Rain = 0
KFR1 240750Z 17009KT 20/10 A3025 RMK A01 T01970098  RH  053%=      5-min Rain = 0
KFR1 240751Z 17009KT 20/10 A3025 RMK A01 T01970098  RH  053%=      5-min Rain = 0
KFR1 240752Z 17009KT 20/10 A3025 RMK A01 T01970098  RH  053%=      5-min Rain = 0
KFR1 240753Z 17009KT 20/10 A3025 RMK A01 T01970097  RH  053%=      5-min Rain = 0
KFR1 240754Z 17008KT 20/10 A3025 RMK A01 T01970097  RH  052%=      5-min Rain = 0
KFR1 240755Z 17010KT 20/10 A3025 RMK A01 T01970097  RH  052%=      5-min Rain = 0
KFR1 240756Z 17010KT 20/10 A3025 RMK A01 T01970096  RH  052%=      5-min Rain = 0
KFR1 240757Z 17010KT 20/10 A3025 RMK A01 T01970096  RH  052%=      5-min Rain = 0
KFR1 240758Z 17010KT 20/10 A3025 RMK A01 T01980096  RH  052%=      5-min Rain = 0
KFR1 240759Z 17009KT 20/10 A3025 RMK A01 T01980096  RH  052%=      5-min Rain = 0
KFR1 240800Z 17009KT 20/10 A3025 RMK A01 T01980096  RH  052%=      5-min Rain = 0
KFR1 240801Z 17009KT 20/10 A3025 RMK A01 T01970096  RH  052%=      5-min Rain = 0
KFR1 240802Z 17008KT 20/10 A3025 RMK A01 T01970096  RH  052%=      5-min Rain = 0
KFR1 240803Z 17008KT 20/10 A3025 RMK A01 T01970096  RH  052%=      5-min Rain = 0
KFR1 240804Z 17008KT 20/10 A3025 RMK A01 T01970096  RH  052%=      5-min Rain = 0
KFR1 240805Z 17009KT 20/10 A3025 RMK A01 T01960096  RH  052%=      5-min Rain = 0
KFR1 240806Z 16009KT 20/10 A3025 RMK A01 T01960097  RH  053%=      5-min Rain = 0
KFR1 240807Z 17010KT 20/10 A3025 RMK A01 T01950096  RH  053%=      5-min Rain = 0
KFR1 240808Z 17009KT 20/10 A3025 RMK A01 T01950096  RH  053%=      5-min Rain = 0
KFR1 240809Z 17009KT 20/10 A3025 RMK A01 T01950096  RH  053%=      5-min Rain = 0
KFR1 240810Z 17009KT 20/10 A3025 RMK A01 T01950096  RH  053%=      5-min Rain = 0
KFR1 240811Z 17009KT 20/10 A3025 RMK A01 T01960096  RH  052%=      5-min Rain = 0
KFR1 240812Z 17009KT 20/10 A3025 RMK A01 T01960096  RH  052%=      5-min Rain = 0
KFR1 240813Z 17009KT 20/10 A3025 RMK A01 T01960096  RH  053%=      5-min Rain = 0
KFR1 240814Z 17007KT 20/10 A3026 RMK A01 T01950096  RH  053%=      5-min Rain = 0
KFR1 240815Z 17008KT 20/10 A3025 RMK A01 T01950096  RH  053%=      5-min Rain = 0
KFR1 240816Z 17009KT 20/10 A3025 RMK A01 T01950096  RH  053%=      5-min Rain = 0
KFR1 240817Z 18008KT 20/10 A3025 RMK A01 T01950096  RH  053%=      5-min Rain = 0
KFR1 240818Z 18008KT 19/10 A3025 RMK A01 T01940096  RH  053%=      5-min Rain = 0
KFR1 240819Z 18009KT 19/10 A3025 RMK A01 T01930096  RH  053%=      5-min Rain = 0
KFR1 240820Z 18007KT 19/10 A3025 RMK A01 T01930096  RH  053%=      5-min Rain = 0
KFR1 240821Z 18007KT 19/10 A3025 RMK A01 T01930096  RH  053%=      5-min Rain = 0
KFR1 240822Z 18008KT 19/10 A3025 RMK A01 T01930096  RH  053%=      5-min Rain = 0
KFR1 240823Z 18008KT 19/10 A3025 RMK A01 T01930096  RH  053%=      5-min Rain = 0
KFR1 240824Z 18007KT 19/10 A3025 RMK A01 T01930095  RH  053%=      5-min Rain = 0
KFR1 240825Z 18008KT 19/10 A3025 RMK A01 T01930095  RH  053%=      5-min Rain = 0
KFR1 240826Z 18008KT 19/09 A3025 RMK A01 T01920094  RH  053%=      5-min Rain = 0
KFR1 240827Z 17007KT 19/09 A3025 RMK A01 T01930094  RH  053%=      5-min Rain = 0
KFR1 240828Z 18008KT 19/09 A3025 RMK A01 T01930094  RH  053%=      5-min Rain = 0
KFR1 240829Z 17008KT 19/09 A3025 RMK A01 T01930094  RH  053%=      5-min Rain = 0
KFR1 240830Z 18008KT 19/09 A3025 RMK A01 T01920094  RH  053%=      5-min Rain = 0
KFR1 240831Z 18009KT 19/09 A3025 RMK A01 T01930094  RH  053%=      5-min Rain = 0
KFR1 240832Z 18009KT 19/09 A3025 RMK A01 T01930093  RH  053%=      5-min Rain = 0
KFR1 240833Z 18008KT 19/09 A3025 RMK A01 T01930093  RH  052%=      5-min Rain = 0
KFR1 240834Z 18009KT 19/09 A3025 RMK A01 T01930093  RH  052%=      5-min Rain = 0
KFR1 240835Z 18008KT 19/09 A3025 RMK A01 T01940092  RH  052%=      5-min Rain = 0
KFR1 240836Z 18010KT 20/09 A3025 RMK A01 T01950092  RH  051%=      5-min Rain = 0
KFR1 240837Z 18009KT 20/09 A3025 RMK A01 T01950091  RH  051%=      5-min Rain = 0
KFR1 240838Z 18009KT 20/09 A3025 RMK A01 T01950090  RH  051%=      5-min Rain = 0
KFR1 240839Z 18009KT 20/09 A3025 RMK A01 T01950090  RH  051%=      5-min Rain = 0
KFR1 240840Z 18010KT 20/09 A3025 RMK A01 T01960089  RH  050%=      5-min Rain = 0
KFR1 240841Z 18009KT 20/09 A3025 RMK A01 T01960089  RH  050%=      5-min Rain = 0
KFR1 240842Z 18008KT 20/09 A3025 RMK A01 T01970089  RH  050%=      5-min Rain = 0
KFR1 240843Z 18007KT 20/09 A3025 RMK A01 T01970088  RH  049%=      5-min Rain = 0
KFR1 240844Z 19009KT 20/09 A3025 RMK A01 T01970088  RH  049%=      5-min Rain = 0
KFR1 240845Z 18007KT 20/09 A3025 RMK A01 T01980088  RH  049%=      5-min Rain = 0
KFR1 240846Z 19007KT 20/09 A3025 RMK A01 T01970088  RH  049%=      5-min Rain = 0
KFR1 240847Z 19007KT 20/09 A3025 RMK A01 T01970088  RH  049%=      5-min Rain = 0
KFR1 240848Z 19007KT 20/09 A3025 RMK A01 T01970088  RH  049%=      5-min Rain = 0
KFR1 240849Z 19007KT 20/09 A3025 RMK A01 T01960088  RH  050%=      5-min Rain = 0
KFR1 240850Z 20006KT 20/09 A3025 RMK A01 T01960088  RH  050%=      5-min Rain = 0
KFR1 240851Z 20006KT 20/09 A3025 RMK A01 T01950088  RH  050%=      5-min Rain = 0
KFR1 240852Z 20004KT 19/09 A3025 RMK A01 T01940089  RH  050%=      5-min Rain = 0
KFR1 240853Z 21005KT 19/09 A3026 RMK A01 T01930089  RH  051%=      5-min Rain = 0
KFR1 240854Z 21006KT 19/09 A3026 RMK A01 T01920089  RH  051%=      5-min Rain = 0
KFR1 240855Z 22005KT 19/09 A3026 RMK A01 T01910089  RH  051%=      5-min Rain = 0
KFR1 240856Z 22005KT 19/09 A3026 RMK A01 T01910089  RH  052%=      5-min Rain = 0
KFR1 240857Z 23005KT 19/09 A3026 RMK A01 T01900090  RH  052%=      5-min Rain = 0
KFR1 240858Z 21005KT 19/09 A3026 RMK A01 T01890090  RH  053%=      5-min Rain = 0
KFR1 240859Z 20004KT 19/09 A3026 RMK A01 T01890091  RH  053%=      5-min Rain = 0
KFR1 240900Z 20005KT 19/09 A3026 RMK A01 T01890091  RH  053%=      5-min Rain = 0
KFR1 240901Z 19005KT 19/09 A3026 RMK A01 T01880092  RH  053%=      5-min Rain = 0
KFR1 240902Z 18005KT 19/09 A3026 RMK A01 T01880092  RH  054%=      5-min Rain = 0
KFR1 240903Z 18004KT 19/09 A3026 RMK A01 T01870092  RH  054%=      5-min Rain = 0
KFR1 240904Z 18004KT 19/09 A3026 RMK A01 T01860091  RH  054%=      5-min Rain = 0
KFR1 240905Z 19004KT 19/09 A3026 RMK A01 T01850091  RH  054%=      5-min Rain = 0
KFR1 240906Z 19003KT 19/09 A3026 RMK A01 T01850091  RH  054%=      5-min Rain = 0
KFR1 240907Z 20004KT 18/09 A3026 RMK A01 T01840091  RH  054%=      5-min Rain = 0
KFR1 240908Z 21004KT 18/09 A3026 RMK A01 T01840091  RH  054%=      5-min Rain = 0
KFR1 240909Z 21003KT 18/09 A3026 RMK A01 T01840091  RH  055%=      5-min Rain = 0
KFR1 240910Z 20003KT 18/09 A3026 RMK A01 T01840091  RH  055%=      5-min Rain = 0
KFR1 240911Z 19003KT 18/09 A3026 RMK A01 T01840091  RH  055%=      5-min Rain = 0
KFR1 240912Z 19002KT 18/09 A3026 RMK A01 T01840091  RH  055%=      5-min Rain = 0
KFR1 240913Z 19002KT 18/09 A3026 RMK A01 T01840091  RH  055%=      5-min Rain = 0
KFR1 240914Z 20002KT 18/09 A3026 RMK A01 T01840091  RH  055%=      5-min Rain = 0
KFR1 240915Z 21002KT 18/09 A3026 RMK A01 T01830091  RH  055%=      5-min Rain = 0
KFR1 240916Z 21003KT 18/09 A3026 RMK A01 T01830091  RH  055%=      5-min Rain = 0
KFR1 240917Z 21003KT 18/09 A3026 RMK A01 T01830091  RH  055%=      5-min Rain = 0
KFR1 240918Z 21003KT 18/09 A3026 RMK A01 T01840091  RH  054%=      5-min Rain = 0
KFR1 240919Z 21003KT 18/09 A3026 RMK A01 T01840091  RH  054%=      5-min Rain = 0
KFR1 240920Z 20004KT 18/09 A3026 RMK A01 T01840091  RH  055%=      5-min Rain = 0
KFR1 240921Z 20003KT 18/09 A3026 RMK A01 T01840091  RH  055%=      5-min Rain = 0
KFR1 240922Z 20004KT 18/09 A3026 RMK A01 T01840091  RH  055%=      5-min Rain = 0
KFR1 240923Z 21004KT 18/09 A3026 RMK A01 T01840091  RH  055%=      5-min Rain = 0
KFR1 240924Z 22005KT 18/09 A3026 RMK A01 T01830091  RH  055%=      5-min Rain = 0
KFR1 240925Z 23005KT 18/09 A3026 RMK A01 T01830091  RH  055%=      5-min Rain = 0
KFR1 240926Z 23005KT 18/09 A3026 RMK A01 T01830091  RH  055%=      5-min Rain = 0
KFR1 240927Z 22005KT 18/09 A3026 RMK A01 T01820091  RH  055%=      5-min Rain = 0
KFR1 240928Z 22005KT 18/09 A3026 RMK A01 T01820091  RH  055%=      5-min Rain = 0
KFR1 240929Z 22006KT 18/09 A3026 RMK A01 T01830090  RH  054%=      5-min Rain = 0
KFR1 240930Z 22005KT 19/09 A3026 RMK A01 T01850089  RH  054%=      5-min Rain = 0
KFR1 240931Z 22005KT 19/09 A3026 RMK A01 T01870089  RH  053%=      5-min Rain = 0
KFR1 240932Z 22004KT 19/09 A3027 RMK A01 T01870089  RH  053%=      5-min Rain = 0
KFR1 240933Z 22004KT 19/09 A3027 RMK A01 T01880089  RH  053%=      5-min Rain = 0
KFR1 240934Z 22004KT 19/09 A3027 RMK A01 T01880089  RH  052%=      5-min Rain = 0
KFR1 240935Z 22004KT 19/09 A3027 RMK A01 T01880090  RH  053%=      5-min Rain = 0
KFR1 240936Z 22005KT 19/09 A3026 RMK A01 T01860089  RH  053%=      5-min Rain = 0
KFR1 240937Z 21005KT 19/09 A3026 RMK A01 T01860089  RH  053%=      5-min Rain = 0
KFR1 240938Z 21005KT 19/09 A3026 RMK A01 T01860089  RH  053%=      5-min Rain = 0
KFR1 240939Z 21005KT 19/09 A3026 RMK A01 T01860089  RH  053%=      5-min Rain = 0
KFR1 240940Z 21005KT 19/09 A3026 RMK A01 T01860089  RH  053%=      5-min Rain = 0
KFR1 240941Z 21006KT 19/09 A3026 RMK A01 T01850090  RH  054%=      5-min Rain = 0
KFR1 240942Z 22006KT 18/09 A3026 RMK A01 T01840090  RH  054%=      5-min Rain = 0
KFR1 240943Z 22006KT 19/09 A3026 RMK A01 T01850089  RH  054%=      5-min Rain = 0
KFR1 240944Z 22006KT 19/09 A3026 RMK A01 T01850089  RH  053%=      5-min Rain = 0
KFR1 240945Z 22006KT 19/09 A3026 RMK A01 T01860089  RH  053%=      5-min Rain = 0
KFR1 240946Z 22005KT 19/09 A3026 RMK A01 T01870087  RH  052%=      5-min Rain = 0
KFR1 240947Z 22005KT 19/09 A3026 RMK A01 T01880088  RH  052%=      5-min Rain = 0
KFR1 240948Z 21004KT 19/09 A3026 RMK A01 T01880089  RH  052%=      5-min Rain = 0
KFR1 240949Z 21004KT 19/09 A3026 RMK A01 T01870088  RH  053%=      5-min Rain = 0
KFR1 240950Z 21004KT 19/09 A3026 RMK A01 T01860088  RH  053%=      5-min Rain = 0
KFR1 240951Z 21005KT 19/09 A3026 RMK A01 T01860088  RH  053%=      5-min Rain = 0
KFR1 240952Z 22006KT 19/09 A3026 RMK A01 T01860088  RH  053%=      5-min Rain = 0
KFR1 240953Z 21006KT 19/09 A3026 RMK A01 T01860087  RH  053%=      5-min Rain = 0
KFR1 240954Z 22005KT 19/09 A3026 RMK A01 T01870087  RH  052%=      5-min Rain = 0
KFR1 240955Z 22006KT 19/09 A3026 RMK A01 T01870087  RH  052%=      5-min Rain = 0
KFR1 240956Z 22006KT 19/09 A3026 RMK A01 T01870088  RH  053%=      5-min Rain = 0
KFR1 240957Z 22006KT 19/09 A3026 RMK A01 T01870088  RH  052%=      5-min Rain = 0
KFR1 240958Z 21006KT 19/09 A3026 RMK A01 T01870087  RH  052%=      5-min Rain = 0
KFR1 240959Z 22006KT 19/09 A3026 RMK A01 T01880088  RH  052%=      5-min Rain = 0
KFR1 241000Z 22006KT 19/09 A3026 RMK A01 T01870087  RH  052%=      5-min Rain = 0
KFR1 241001Z 22006KT 19/09 A3026 RMK A01 T01870088  RH  052%=      5-min Rain = 0
KFR1 241002Z 22006KT 19/09 A3026 RMK A01 T01870087  RH  052%=      5-min Rain = 0
KFR1 241003Z 22005KT 19/09 A3026 RMK A01 T01870087  RH  052%=      5-min Rain = 0
KFR1 241004Z 21005KT 19/09 A3026 RMK A01 T01870087  RH  052%=      5-min Rain = 0
KFR1 241005Z 21005KT 19/09 A3026 RMK A01 T01870086  RH  052%=      5-min Rain = 0
KFR1 241006Z 21004KT 19/09 A3026 RMK A01 T01870086  RH  052%=      5-min Rain = 0
KFR1 241007Z 21004KT 19/09 A3026 RMK A01 T01880087  RH  052%=      5-min Rain = 0
KFR1 241008Z 21004KT 19/09 A3026 RMK A01 T01870087  RH  052%=      5-min Rain = 0
KFR1 241009Z 21004KT 19/09 A3026 RMK A01 T01860087  RH  052%=      5-min Rain = 0
KFR1 241010Z 21004KT 19/09 A3026 RMK A01 T01850086  RH  052%=      5-min Rain = 0
KFR1 241011Z 21005KT 19/09 A3026 RMK A01 T01850086  RH  053%=      5-min Rain = 0
KFR1 241012Z 21005KT 18/09 A3026 RMK A01 T01840086  RH  053%=      5-min Rain = 0
KFR1 241013Z 21005KT 18/09 A3026 RMK A01 T01840086  RH  053%=      5-min Rain = 0
KFR1 241014Z 20005KT 18/09 A3026 RMK A01 T01830087  RH  053%=      5-min Rain = 0
KFR1 241015Z 20004KT 18/09 A3026 RMK A01 T01830087  RH  054%=      5-min Rain = 0
KFR1 241016Z 20004KT 18/09 A3026 RMK A01 T01820087  RH  054%=      5-min Rain = 0
KFR1 241017Z 20004KT 18/09 A3026 RMK A01 T01810087  RH  054%=      5-min Rain = 0
KFR1 241018Z 20004KT 18/09 A3026 RMK A01 T01810087  RH  054%=      5-min Rain = 0
KFR1 241019Z 21004KT 18/09 A3026 RMK A01 T01810087  RH  054%=      5-min Rain = 0
KFR1 241020Z 20004KT 18/09 A3026 RMK A01 T01810086  RH  054%=      5-min Rain = 0
KFR1 241021Z 20004KT 18/09 A3026 RMK A01 T01810086  RH  054%=      5-min Rain = 0
KFR1 241022Z 19003KT 18/09 A3026 RMK A01 T01810087  RH  054%=      5-min Rain = 0
KFR1 241023Z 20003KT 18/09 A3026 RMK A01 T01810087  RH  054%=      5-min Rain = 0
KFR1 241024Z 19003KT 18/09 A3026 RMK A01 T01810087  RH  054%=      5-min Rain = 0
KFR1 241025Z 19003KT 18/09 A3026 RMK A01 T01800087  RH  054%=      5-min Rain = 0
KFR1 241026Z 19003KT 18/09 A3026 RMK A01 T01800087  RH  054%=      5-min Rain = 0
KFR1 241027Z 19003KT 18/09 A3026 RMK A01 T01800087  RH  055%=      5-min Rain = 0
KFR1 241028Z 19003KT 18/09 A3026 RMK A01 T01790086  RH  055%=      5-min Rain = 0
KFR1 241029Z 19004KT 18/09 A3026 RMK A01 T01790087  RH  055%=      5-min Rain = 0
KFR1 241030Z 19004KT 18/09 A3026 RMK A01 T01790086  RH  055%=      5-min Rain = 0
KFR1 241031Z 19004KT 18/09 A3026 RMK A01 T01790086  RH  055%=      5-min Rain = 0
KFR1 241032Z 19004KT 18/09 A3026 RMK A01 T01790087  RH  055%=      5-min Rain = 0
KFR1 241033Z 20004KT 18/09 A3026 RMK A01 T01790087  RH  055%=      5-min Rain = 0
KFR1 241034Z 20005KT 18/09 A3026 RMK A01 T01790087  RH  055%=      5-min Rain = 0
KFR1 241035Z 20004KT 18/09 A3026 RMK A01 T01780086  RH  055%=      5-min Rain = 0
KFR1 241036Z 20005KT 18/09 A3026 RMK A01 T01790086  RH  054%=      5-min Rain = 0
KFR1 241037Z 20005KT 18/09 A3026 RMK A01 T01800086  RH  054%=      5-min Rain = 0
KFR1 241038Z 20005KT 18/09 A3026 RMK A01 T01790086  RH  054%=      5-min Rain = 0
KFR1 241039Z 20005KT 18/09 A3026 RMK A01 T01790086  RH  054%=      5-min Rain = 0
KFR1 241040Z 20005KT 18/09 A3026 RMK A01 T01790086  RH  054%=      5-min Rain = 0
KFR1 241041Z 20006KT 18/09 A3026 RMK A01 T01790086  RH  055%=      5-min Rain = 0
KFR1 241042Z 21006KT 18/09 A3026 RMK A01 T01790086  RH  055%=      5-min Rain = 0
KFR1 241043Z 21007KT 18/09 A3026 RMK A01 T01790085  RH  054%=      5-min Rain = 0
KFR1 241044Z 21007KT 18/09 A3026 RMK A01 T01790086  RH  054%=      5-min Rain = 0
KFR1 241045Z 21007KT 18/09 A3026 RMK A01 T01800085  RH  054%=      5-min Rain = 0
KFR1 241046Z 21007KT 18/09 A3026 RMK A01 T01810086  RH  054%=      5-min Rain = 0
KFR1 241047Z 21008KT 18/09 A3026 RMK A01 T01810086  RH  054%=      5-min Rain = 0
KFR1 241048Z 21007KT 18/09 A3026 RMK A01 T01810086  RH  054%=      5-min Rain = 0
KFR1 241049Z 21007KT 18/09 A3026 RMK A01 T01810086  RH  054%=      5-min Rain = 0
KFR1 241050Z 21007KT 18/09 A3026 RMK A01 T01810086  RH  054%=      5-min Rain = 0
KFR1 241051Z 21008KT 18/09 A3026 RMK A01 T01810086  RH  054%=      5-min Rain = 0
KFR1 241052Z 21008KT 18/09 A3026 RMK A01 T01810086  RH  054%=      5-min Rain = 0
KFR1 241053Z 21008KT 18/09 A3026 RMK A01 T01810086  RH  054%=      5-min Rain = 0
KFR1 241054Z 21008KT 18/09 A3026 RMK A01 T01820086  RH  053%=      5-min Rain = 0
KFR1 241055Z 21008KT 18/09 A3026 RMK A01 T01820086  RH  053%=      5-min Rain = 0
KFR1 241056Z 21008KT 18/09 A3026 RMK A01 T01830086  RH  053%=      5-min Rain = 0
KFR1 241057Z 21009KT 18/09 A3026 RMK A01 T01820086  RH  053%=      5-min Rain = 0
KFR1 241058Z 21009KT 18/09 A3026 RMK A01 T01830086  RH  053%=      5-min Rain = 0
KFR1 241059Z 21009KT 18/09 A3026 RMK A01 T01830086  RH  053%=      5-min Rain = 0
KFR1 241100Z 21008KT 18/09 A3026 RMK A01 T01830086  RH  053%=      5-min Rain = 0
KFR1 241101Z 21009KT 18/09 A3026 RMK A01 T01830087  RH  053%=      5-min Rain = 0
KFR1 241102Z 21009KT 18/09 A3026 RMK A01 T01830087  RH  053%=      5-min Rain = 0
KFR1 241103Z 21009KT 18/09 A3026 RMK A01 T01830087  RH  053%=      5-min Rain = 0
KFR1 241104Z 21009KT 18/09 A3026 RMK A01 T01830087  RH  053%=      5-min Rain = 0
KFR1 241105Z 21008KT 18/09 A3026 RMK A01 T01830087  RH  054%=      5-min Rain = 0
KFR1 241106Z 21008KT 18/09 A3026 RMK A01 T01820087  RH  054%=      5-min Rain = 0
KFR1 241107Z 21008KT 18/09 A3026 RMK A01 T01820087  RH  054%=      5-min Rain = 0
KFR1 241108Z 21007KT 18/09 A3026 RMK A01 T01820087  RH  054%=      5-min Rain = 0
KFR1 241109Z 21008KT 18/09 A3026 RMK A01 T01820087  RH  054%=      5-min Rain = 0
KFR1 241110Z 21007KT 18/09 A3026 RMK A01 T01810087  RH  054%=      5-min Rain = 0
KFR1 241111Z 21007KT 18/09 A3026 RMK A01 T01820087  RH  054%=      5-min Rain = 0
KFR1 241112Z 21007KT 18/09 A3026 RMK A01 T01820087  RH  054%=      5-min Rain = 0
KFR1 241113Z 21007KT 18/09 A3026 RMK A01 T01820088  RH  054%=      5-min Rain = 0
KFR1 241114Z 21007KT 18/09 A3026 RMK A01 T01820088  RH  054%=      5-min Rain = 0
KFR1 241115Z 21006KT 18/09 A3026 RMK A01 T01820088  RH  054%=      5-min Rain = 0
KFR1 241116Z 21007KT 18/09 A3026 RMK A01 T01820088  RH  054%=      5-min Rain = 0
KFR1 241117Z 21006KT 18/09 A3026 RMK A01 T01810088  RH  054%=      5-min Rain = 0
KFR1 241118Z 21006KT 18/09 A3026 RMK A01 T01810088  RH  055%=      5-min Rain = 0
KFR1 241119Z 21006KT 18/09 A3026 RMK A01 T01800088  RH  055%=      5-min Rain = 0
KFR1 241120Z 20006KT 18/09 A3026 RMK A01 T01790088  RH  055%=      5-min Rain = 0
KFR1 241121Z 20006KT 18/09 A3026 RMK A01 T01780088  RH  056%=      5-min Rain = 0
KFR1 241122Z 20006KT 18/09 A3026 RMK A01 T01780088  RH  056%=      5-min Rain = 0
KFR1 241123Z 20005KT 18/09 A3027 RMK A01 T01770088  RH  056%=      5-min Rain = 0
KFR1 241124Z 20005KT 18/09 A3027 RMK A01 T01760089  RH  057%=      5-min Rain = 0
KFR1 241125Z 20006KT 18/09 A3027 RMK A01 T01750089  RH  057%=      5-min Rain = 0
KFR1 241126Z 20006KT 18/09 A3027 RMK A01 T01750088  RH  057%=      5-min Rain = 0
KFR1 241127Z 20006KT 18/09 A3027 RMK A01 T01750089  RH  057%=      5-min Rain = 0
KFR1 241128Z 20005KT 18/09 A3027 RMK A01 T01750088  RH  057%=      5-min Rain = 0
KFR1 241129Z 20005KT 18/09 A3027 RMK A01 T01750088  RH  057%=      5-min Rain = 0
KFR1 241130Z 20005KT 18/09 A3027 RMK A01 T01750089  RH  057%=      5-min Rain = 0
KFR1 241131Z 20005KT 17/09 A3027 RMK A01 T01740088  RH  057%=      5-min Rain = 0
KFR1 241132Z 21006KT 17/09 A3027 RMK A01 T01740089  RH  057%=      5-min Rain = 0
KFR1 241133Z 21006KT 18/09 A3027 RMK A01 T01750089  RH  057%=      5-min Rain = 0
KFR1 241134Z 21007KT 18/09 A3027 RMK A01 T01760089  RH  057%=      5-min Rain = 0
KFR1 241135Z 21007KT 18/09 A3027 RMK A01 T01760088  RH  056%=      5-min Rain = 0
KFR1 241136Z 21007KT 18/09 A3027 RMK A01 T01770088  RH  056%=      5-min Rain = 0
KFR1 241137Z 21007KT 18/09 A3027 RMK A01 T01770088  RH  056%=      5-min Rain = 0
KFR1 241138Z 21008KT 18/09 A3027 RMK A01 T01780089  RH  056%=      5-min Rain = 0
KFR1 241139Z 21007KT 18/09 A3027 RMK A01 T01780089  RH  056%=      5-min Rain = 0
KFR1 241140Z 21007KT 18/09 A3027 RMK A01 T01790089  RH  056%=      5-min Rain = 0
KFR1 241141Z 21007KT 18/09 A3027 RMK A01 T01780089  RH  056%=      5-min Rain = 0
KFR1 241142Z 21007KT 18/09 A3027 RMK A01 T01780090  RH  056%=      5-min Rain = 0
KFR1 241143Z 21006KT 18/09 A3027 RMK A01 T01770090  RH  056%=      5-min Rain = 0
KFR1 241144Z 20007KT 18/09 A3027 RMK A01 T01760089  RH  057%=      5-min Rain = 0
KFR1 241145Z 20007KT 18/09 A3027 RMK A01 T01760089  RH  057%=      5-min Rain = 0
KFR1 241146Z 20006KT 18/09 A3027 RMK A01 T01750089  RH  057%=      5-min Rain = 0
KFR1 241147Z 20007KT 18/09 A3027 RMK A01 T01750089  RH  057%=      5-min Rain = 0
KFR1 241148Z 20006KT 17/09 A3027 RMK A01 T01740089  RH  057%=      5-min Rain = 0
KFR1 241149Z 20006KT 17/09 A3027 RMK A01 T01740089  RH  057%=      5-min Rain = 0
KFR1 241150Z 20007KT 17/09 A3027 RMK A01 T01740089  RH  057%=      5-min Rain = 0
KFR1 241151Z 20007KT 17/09 A3027 RMK A01 T01740089  RH  057%=      5-min Rain = 0
KFR1 241152Z 21007KT 18/09 A3027 RMK A01 T01750089  RH  057%=      5-min Rain = 0
KFR1 241153Z 21006KT 18/09 A3027 RMK A01 T01750089  RH  057%=      5-min Rain = 0
KFR1 241154Z 21006KT 18/09 A3027 RMK A01 T01760089  RH  057%=      5-min Rain = 0
KFR1 241155Z 21006KT 18/09 A3027 RMK A01 T01760089  RH  057%=      5-min Rain = 0
KFR1 241156Z 21005KT 18/09 A3027 RMK A01 T01760090  RH  057%=      5-min Rain = 0
KFR1 241157Z 21007KT 18/09 A3027 RMK A01 T01760090  RH  057%=      5-min Rain = 0
KFR1 241158Z 21006KT 18/09 A3027 RMK A01 T01760090  RH  057%=      5-min Rain = 0
KFR1 241159Z 21006KT 18/09 A3027 RMK A01 T01750090  RH  057%=      5-min Rain = 0
KFR1 241200Z 21006KT 18/09 A3027 RMK A01 T01750090  RH  057%=      5-min Rain = 0
KFR1 241201Z 21006KT 18/09 A3027 RMK A01 T01750090  RH  057%=      5-min Rain = 0
KFR1 241202Z 21006KT 18/09 A3027 RMK A01 T01750090  RH  057%=      5-min Rain = 0
KFR1 241203Z 21006KT 18/09 A3027 RMK A01 T01750090  RH  057%=      5-min Rain = 0
KFR1 241204Z 21006KT 18/09 A3027 RMK A01 T01750090  RH  057%=      5-min Rain = 0
KFR1 241205Z 21006KT 18/09 A3027 RMK A01 T01750089  RH  057%=      5-min Rain = 0
KFR1 241206Z 21006KT 18/09 A3027 RMK A01 T01750089  RH  057%=      5-min Rain = 0
KFR1 241207Z 21006KT 18/09 A3027 RMK A01 T01750089  RH  057%=      5-min Rain = 0
KFR1 241208Z 21006KT 18/09 A3027 RMK A01 T01760089  RH  057%=      5-min Rain = 0
KFR1 241209Z 21007KT 18/09 A3027 RMK A01 T01760090  RH  057%=      5-min Rain = 0
KFR1 241210Z 21006KT 18/09 A3027 RMK A01 T01760089  RH  057%=      5-min Rain = 0
KFR1 241211Z 21007KT 18/09 A3027 RMK A01 T01760089  RH  057%=      5-min Rain = 0
KFR1 241212Z 21006KT 18/09 A3027 RMK A01 T01770090  RH  057%=      5-min Rain = 0
KFR1 241213Z 21006KT 18/09 A3027 RMK A01 T01760090  RH  057%=      5-min Rain = 0
KFR1 241214Z 21006KT 18/09 A3027 RMK A01 T01760090  RH  057%=      5-min Rain = 0
KFR1 241215Z 21006KT 18/09 A3027 RMK A01 T01770090  RH  057%=      5-min Rain = 0
KFR1 241216Z 21006KT 18/09 A3027 RMK A01 T01770090  RH  057%=      5-min Rain = 0
KFR1 241217Z 21007KT 18/09 A3027 RMK A01 T01760090  RH  057%=      5-min Rain = 0
KFR1 241218Z 20006KT 18/09 A3027 RMK A01 T01760090  RH  057%=      5-min Rain = 0
KFR1 241219Z 20006KT 18/09 A3027 RMK A01 T01760090  RH  057%=      5-min Rain = 0
KFR1 241220Z 21006KT 18/09 A3027 RMK A01 T01770090  RH  057%=      5-min Rain = 0
KFR1 241221Z 21006KT 18/09 A3028 RMK A01 T01760090  RH  057%=      5-min Rain = 0
KFR1 241222Z 20006KT 18/09 A3028 RMK A01 T01770090  RH  057%=      5-min Rain = 0
KFR1 241223Z 20006KT 18/09 A3028 RMK A01 T01770090  RH  057%=      5-min Rain = 0
KFR1 241224Z 20006KT 18/09 A3028 RMK A01 T01770091  RH  057%=      5-min Rain = 0
KFR1 241225Z 20006KT 18/09 A3028 RMK A01 T01770091  RH  057%=      5-min Rain = 0
KFR1 241226Z 20006KT 18/09 A3028 RMK A01 T01770091  RH  057%=      5-min Rain = 0
KFR1 241227Z 20007KT 18/09 A3028 RMK A01 T01770091  RH  057%=      5-min Rain = 0
KFR1 241228Z 20006KT 18/09 A3028 RMK A01 T01770091  RH  057%=      5-min Rain = 0
KFR1 241229Z 20005KT 18/09 A3028 RMK A01 T01770092  RH  057%=      5-min Rain = 0
KFR1 241230Z 20005KT 18/09 A3028 RMK A01 T01770091  RH  057%=      5-min Rain = 0
KFR1 241231Z 20005KT 18/09 A3028 RMK A01 T01780092  RH  057%=      5-min Rain = 0
KFR1 241232Z 20005KT 18/09 A3028 RMK A01 T01780091  RH  057%=      5-min Rain = 0
KFR1 241233Z 20005KT 18/09 A3028 RMK A01 T01790092  RH  057%=      5-min Rain = 0
KFR1 241234Z 21006KT 18/09 A3028 RMK A01 T01800091  RH  056%=      5-min Rain = 0
KFR1 241235Z 21005KT 18/09 A3028 RMK A01 T01800090  RH  056%=      5-min Rain = 0
KFR1 241236Z 20006KT 18/09 A3028 RMK A01 T01800091  RH  056%=      5-min Rain = 0
KFR1 241237Z 20006KT 18/09 A3028 RMK A01 T01810091  RH  056%=      5-min Rain = 0
KFR1 241238Z 21005KT 18/09 A3028 RMK A01 T01820092  RH  056%=      5-min Rain = 0
KFR1 241239Z 20005KT 18/09 A3028 RMK A01 T01820092  RH  056%=      5-min Rain = 0
KFR1 241240Z 21006KT 18/09 A3028 RMK A01 T01820092  RH  055%=      5-min Rain = 0
KFR1 241241Z 21006KT 18/09 A3028 RMK A01 T01830092  RH  055%=      5-min Rain = 0
KFR1 241242Z 21006KT 18/09 A3028 RMK A01 T01830092  RH  055%=      5-min Rain = 0
KFR1 241243Z 21007KT 18/09 A3027 RMK A01 T01840091  RH  055%=      5-min Rain = 0
KFR1 241244Z 21005KT 19/09 A3027 RMK A01 T01850092  RH  055%=      5-min Rain = 0
KFR1 241245Z 21005KT 19/09 A3027 RMK A01 T01850093  RH  055%=      5-min Rain = 0
KFR1 241246Z 21006KT 19/09 A3027 RMK A01 T01850091  RH  054%=      5-min Rain = 0
KFR1 241247Z 21006KT 19/09 A3028 RMK A01 T01850091  RH  054%=      5-min Rain = 0
KFR1 241248Z 21006KT 19/09 A3028 RMK A01 T01860091  RH  054%=      5-min Rain = 0
KFR1 241249Z 21006KT 19/09 A3028 RMK A01 T01860091  RH  054%=      5-min Rain = 0
KFR1 241250Z 21005KT 19/09 A3028 RMK A01 T01860091  RH  054%=      5-min Rain = 0
KFR1 241251Z 21005KT 19/09 A3028 RMK A01 T01870091  RH  054%=      5-min Rain = 0
KFR1 241252Z 21005KT 19/09 A3028 RMK A01 T01880091  RH  054%=      5-min Rain = 0
KFR1 241253Z 21005KT 19/09 A3028 RMK A01 T01880090  RH  053%=      5-min Rain = 0
KFR1 241254Z 20004KT 19/09 A3028 RMK A01 T01880090  RH  053%=      5-min Rain = 0
KFR1 241255Z 20004KT 19/09 A3028 RMK A01 T01880092  RH  053%=      5-min Rain = 0
KFR1 241256Z 19004KT 19/09 A3028 RMK A01 T01890092  RH  053%=      5-min Rain = 0
KFR1 241257Z 19004KT 19/09 A3028 RMK A01 T01890092  RH  053%=      5-min Rain = 0
KFR1 241258Z 20004KT 19/09 A3028 RMK A01 T01890092  RH  053%=      5-min Rain = 0
KFR1 241259Z 20005KT 19/09 A3028 RMK A01 T01900092  RH  053%=      5-min Rain = 0
KFR1 241300Z 20003KT 19/09 A3028 RMK A01 T01900092  RH  053%=      5-min Rain = 0
KFR1 241301Z 20006KT 19/09 A3028 RMK A01 T01900091  RH  053%=      5-min Rain = 0
KFR1 241302Z 19006KT 19/09 A3028 RMK A01 T01900090  RH  052%=      5-min Rain = 0
KFR1 241303Z 20005KT 19/09 A3028 RMK A01 T01910091  RH  052%=      5-min Rain = 0
KFR1 241304Z 20004KT 19/09 A3028 RMK A01 T01920092  RH  052%=      5-min Rain = 0
KFR1 241305Z 20005KT 19/09 A3028 RMK A01 T01920092  RH  052%=      5-min Rain = 0
KFR1 241306Z 20006KT 19/09 A3028 RMK A01 T01930091  RH  052%=      5-min Rain = 0
KFR1 241307Z 20006KT 19/09 A3028 RMK A01 T01930092  RH  052%=      5-min Rain = 0
KFR1 241308Z 21006KT 19/09 A3028 RMK A01 T01930091  RH  052%=      5-min Rain = 0
KFR1 241309Z 20006KT 19/09 A3028 RMK A01 T01930091  RH  052%=      5-min Rain = 0
KFR1 241310Z 20007KT 19/09 A3028 RMK A01 T01930092  RH  052%=      5-min Rain = 0
KFR1 241311Z 21007KT 19/09 A3028 RMK A01 T01930091  RH  052%=      5-min Rain = 0
KFR1 241312Z 21006KT 19/09 A3028 RMK A01 T01930091  RH  052%=      5-min Rain = 0
KFR1 241313Z 22006KT 19/09 A3028 RMK A01 T01930091  RH  052%=      5-min Rain = 0
KFR1 241314Z 21007KT 19/09 A3028 RMK A01 T01920090  RH  052%=      5-min Rain = 0
KFR1 241315Z 21007KT 19/09 A3028 RMK A01 T01930091  RH  051%=      5-min Rain = 0
KFR1 241316Z 21006KT 19/09 A3028 RMK A01 T01930090  RH  051%=      5-min Rain = 0
KFR1 241317Z 21007KT 19/09 A3028 RMK A01 T01940091  RH  051%=      5-min Rain = 0
KFR1 241318Z 21007KT 19/09 A3028 RMK A01 T01940090  RH  051%=      5-min Rain = 0
KFR1 241319Z 21006KT 19/09 A3028 RMK A01 T01940089  RH  051%=      5-min Rain = 0
KFR1 241320Z 21006KT 20/09 A3028 RMK A01 T01950090  RH  051%=      5-min Rain = 0
KFR1 241321Z 21005KT 20/09 A3028 RMK A01 T01950090  RH  051%=      5-min Rain = 0
KFR1 241322Z 20006KT 20/09 A3028 RMK A01 T01950091  RH  051%=      5-min Rain = 0
KFR1 241323Z 21007KT 20/09 A3028 RMK A01 T01950090  RH  051%=      5-min Rain = 0
KFR1 241324Z 20007KT 20/09 A3028 RMK A01 T01950089  RH  050%=      5-min Rain = 0
KFR1 241325Z 20006KT 20/09 A3028 RMK A01 T01950090  RH  051%=      5-min Rain = 0
KFR1 241326Z 20006KT 20/09 A3028 RMK A01 T01960090  RH  050%=      5-min Rain = 0
KFR1 241327Z 20006KT 20/09 A3028 RMK A01 T01960091  RH  051%=      5-min Rain = 0
KFR1 241328Z 20006KT 20/09 A3028 RMK A01 T01960090  RH  050%=      5-min Rain = 0
KFR1 241329Z 20006KT 20/09 A3028 RMK A01 T01960090  RH  050%=      5-min Rain = 0
KFR1 241330Z 20007KT 20/09 A3028 RMK A01 T01970090  RH  050%=      5-min Rain = 0
KFR1 241331Z 20008KT 20/09 A3028 RMK A01 T01970090  RH  050%=      5-min Rain = 0
KFR1 241332Z 21006KT 20/09 A3028 RMK A01 T01980090  RH  050%=      5-min Rain = 0
KFR1 241333Z 20007KT 20/09 A3028 RMK A01 T01990090  RH  049%=      5-min Rain = 0
KFR1 241334Z 21007KT 20/09 A3028 RMK A01 T02010090  RH  049%=      5-min Rain = 0
KFR1 241335Z 21006KT 20/09 A3028 RMK A01 T02020090  RH  048%=      5-min Rain = 0
KFR1 241336Z 21006KT 20/09 A3028 RMK A01 T02030090  RH  048%=      5-min Rain = 0
KFR1 241337Z 20006KT 20/09 A3028 RMK A01 T02040091  RH  048%=      5-min Rain = 0
KFR1 241338Z 21008KT 21/09 A3028 RMK A01 T02050091  RH  048%=      5-min Rain = 0
KFR1 241339Z 20006KT 21/09 A3028 RMK A01 T02050089  RH  047%=      5-min Rain = 0
KFR1 241340Z 20006KT 21/09 A3028 RMK A01 T02060091  RH  048%=      5-min Rain = 0
KFR1 241341Z 20007KT 21/09 A3028 RMK A01 T02070091  RH  048%=      5-min Rain = 0
KFR1 241342Z 20008KT 21/09 A3028 RMK A01 T02070091  RH  047%=      5-min Rain = 0
KFR1 241343Z 20008KT 21/09 A3028 RMK A01 T02080091  RH  047%=      5-min Rain = 0
KFR1 241344Z 20008KT 21/09 A3028 RMK A01 T02090091  RH  047%=      5-min Rain = 0
KFR1 241345Z 20008KT 21/09 A3028 RMK A01 T02110091  RH  046%=      5-min Rain = 0
KFR1 241346Z 20008KT 21/09 A3028 RMK A01 T02120091  RH  046%=      5-min Rain = 0
KFR1 241347Z 20008KT 21/09 A3028 RMK A01 T02140090  RH  045%=      5-min Rain = 0
KFR1 241348Z 20007KT 22/09 A3028 RMK A01 T02150091  RH  045%=      5-min Rain = 0
KFR1 241349Z 20007KT 22/09 A3028 RMK A01 T02160092  RH  045%=      5-min Rain = 0
KFR1 241350Z 21007KT 22/09 A3028 RMK A01 T02170093  RH  045%=      5-min Rain = 0
KFR1 241351Z 20006KT 22/09 A3028 RMK A01 T02190094  RH  045%=      5-min Rain = 0
KFR1 241352Z 20007KT 22/09 A3028 RMK A01 T02190094  RH  045%=      5-min Rain = 0
KFR1 241353Z 21009KT 22/09 A3028 RMK A01 T02210093  RH  044%=      5-min Rain = 0
KFR1 241354Z 20008KT 22/09 A3028 RMK A01 T02210093  RH  044%=      5-min Rain = 0
KFR1 241355Z 21010KT 22/09 A3028 RMK A01 T02210092  RH  044%=      5-min Rain = 0
KFR1 241356Z 21010KT 22/09 A3028 RMK A01 T02200091  RH  044%=      5-min Rain = 0
KFR1 241357Z 21010KT 22/09 A3028 RMK A01 T02190091  RH  044%=      5-min Rain = 0
KFR1 241358Z 21007KT 22/09 A3028 RMK A01 T02190092  RH  044%=      5-min Rain = 0
KFR1 241359Z 22008KT 22/09 A3028 RMK A01 T02180093  RH  045%=      5-min Rain = 0
KFR1 241400Z 22007KT 22/09 A3028 RMK A01 T02180092  RH  045%=      5-min Rain = 0
KFR1 241401Z 21006KT 22/09 A3028 RMK A01 T02180092  RH  044%=      5-min Rain = 0
KFR1 241402Z 22006KT 22/09 A3028 RMK A01 T02210094  RH  044%=      5-min Rain = 0
KFR1 241403Z 23006KT 22/10 A3028 RMK A01 T02230096  RH  045%=      5-min Rain = 0
KFR1 241404Z 21006KT 22/10 A3028 RMK A01 T02240097  RH  044%=      5-min Rain = 0
KFR1 241405Z 25005KT 23/10 A3028 RMK A01 T02250101  RH  045%=      5-min Rain = 0
KFR1 241406Z 21006KT 23/11 A3028 RMK A01 T02260108  RH  047%=      5-min Rain = 0
KFR1 241407Z 24004KT 23/11 A3028 RMK A01 T02260113  RH  049%=      5-min Rain = 0
KFR1 241408Z 25003KT 23/11 A3028 RMK A01 T02250110  RH  048%=      5-min Rain = 0
KFR1 241409Z 26003KT 22/12 A3028 RMK A01 T02240116  RH  050%=      5-min Rain = 0
KFR1 241410Z 26002KT 22/11 A3028 RMK A01 T02230113  RH  049%=      5-min Rain = 0
KFR1 241411Z 26002KT 22/11 A3028 RMK A01 T02220113  RH  050%=      5-min Rain = 0
KFR1 241412Z 21003KT 22/11 A3028 RMK A01 T02220111  RH  049%=      5-min Rain = 0
KFR1 241413Z 24002KT 22/11 A3028 RMK A01 T02220109  RH  049%=      5-min Rain = 0
KFR1 241414Z 26003KT 22/11 A3028 RMK A01 T02220113  RH  050%=      5-min Rain = 0
KFR1 241415Z 24003KT 22/11 A3028 RMK A01 T02200110  RH  050%=      5-min Rain = 0
KFR1 241416Z 25004KT 22/11 A3028 RMK A01 T02200110  RH  050%=      5-min Rain = 0
KFR1 241417Z 23004KT 22/11 A3028 RMK A01 T02200111  RH  050%=      5-min Rain = 0
KFR1 241418Z 23004KT 22/11 A3028 RMK A01 T02200111  RH  050%=      5-min Rain = 0
KFR1 241419Z 25004KT 22/11 A3028 RMK A01 T02200106  RH  048%=      5-min Rain = 0
KFR1 241420Z 25004KT 22/11 A3028 RMK A01 T02200114  RH  051%=      5-min Rain = 0
KFR1 241421Z 26005KT 22/12 A3028 RMK A01 T02200115  RH  051%=      5-min Rain = 0
KFR1 241422Z 25005KT 22/12 A3028 RMK A01 T02170115  RH  052%=      5-min Rain = 0
KFR1 241423Z 23005KT 22/11 A3028 RMK A01 T02160112  RH  051%=      5-min Rain = 0
KFR1 241424Z 25005KT 22/11 A3028 RMK A01 T02160109  RH  050%=      5-min Rain = 0
KFR1 241425Z 25006KT 22/11 A3028 RMK A01 T02160109  RH  051%=      5-min Rain = 0
KFR1 241426Z 25006KT 22/11 A3028 RMK A01 T02150108  RH  051%=      5-min Rain = 0
KFR1 241427Z 25005KT 22/11 A3028 RMK A01 T02150108  RH  050%=      5-min Rain = 0
KFR1 241428Z 26005KT 22/11 A3028 RMK A01 T02150108  RH  050%=      5-min Rain = 0
KFR1 241429Z 25005KT 22/11 A3028 RMK A01 T02150108  RH  050%=      5-min Rain = 0
KFR1 241430Z 27004KT 22/11 A3028 RMK A01 T02150108  RH  050%=      5-min Rain = 0
KFR1 241431Z 26004KT 22/11 A3028 RMK A01 T02160111  RH  051%=      5-min Rain = 0
KFR1 241432Z 24004KT 22/11 A3028 RMK A01 T02170110  RH  051%=      5-min Rain = 0
KFR1 241433Z 23004KT 22/11 A3028 RMK A01 T02190109  RH  050%=      5-min Rain = 0
KFR1 241434Z 24002KT 22/11 A3028 RMK A01 T02210108  RH  049%=      5-min Rain = 0
KFR1 241435Z 25003KT 22/11 A3028 RMK A01 T02220111  RH  049%=      5-min Rain = 0
KFR1 241436Z 25005KT 22/11 A3028 RMK A01 T02220106  RH  048%=      5-min Rain = 0
KFR1 241437Z 24004KT 22/10 A3028 RMK A01 T02230104  RH  047%=      5-min Rain = 0
KFR1 241438Z 23002KT 23/11 A3028 RMK A01 T02250108  RH  047%=      5-min Rain = 0
KFR1 241439Z 22003KT 23/11 A3028 RMK A01 T02250107  RH  047%=      5-min Rain = 0
KFR1 241440Z 24003KT 23/11 A3028 RMK A01 T02270109  RH  047%=      5-min Rain = 0
KFR1 241441Z 23006KT 23/10 A3028 RMK A01 T02290102  RH  045%=      5-min Rain = 0
KFR1 241442Z 22006KT 23/10 A3028 RMK A01 T02300100  RH  044%=      5-min Rain = 0
KFR1 241443Z 22008KT 23/10 A3028 RMK A01 T02330101  RH  043%=      5-min Rain = 0
KFR1 241444Z 21008KT 24/10 A3028 RMK A01 T02370096  RH  041%=      5-min Rain = 0
KFR1 241445Z 20009KT 24/09 A3028 RMK A01 T02400093  RH  039%=      5-min Rain = 0
KFR1 241446Z 21009KT 24/09 A3028 RMK A01 T02420094  RH  039%=      5-min Rain = 0
KFR1 241447Z 22010KT 24/09 A3028 RMK A01 T02420093  RH  039%=      5-min Rain = 0
KFR1 241448Z 20008KT 24/09 A3028 RMK A01 T02420092  RH  039%=      5-min Rain = 0
KFR1 241449Z 20009KT 24/09 A3028 RMK A01 T02410093  RH  039%=      5-min Rain = 0
KFR1 241450Z 21007KT 24/09 A3028 RMK A01 T02420091  RH  038%=      5-min Rain = 0
KFR1 241451Z 24005KT 24/10 A3028 RMK A01 T02420101  RH  041%=      5-min Rain = 0
KFR1 241452Z 24007KT 24/11 A3028 RMK A01 T02420112  RH  044%=      5-min Rain = 0
KFR1 241453Z 25004KT 24/11 A3028 RMK A01 T02420106  RH  042%=      5-min Rain = 0
KFR1 241454Z 26005KT 24/11 A3028 RMK A01 T02400107  RH  043%=      5-min Rain = 0
KFR1 241455Z 24005KT 24/11 A3028 RMK A01 T02410110  RH  044%=      5-min Rain = 0
KFR1 241456Z 24005KT 24/11 A3028 RMK A01 T02430109  RH  043%=      5-min Rain = 0
KFR1 241457Z 24007KT 25/10 A3028 RMK A01 T02450103  RH  041%=      5-min Rain = 0
KFR1 241458Z 21009KT 25/10 A3027 RMK A01 T02470097  RH  039%=      5-min Rain = 0
KFR1 241459Z 22009KT 25/09 A3027 RMK A01 T02500094  RH  037%=      5-min Rain = 0
KFR1 241500Z 22013KT 25/09 A3027 RMK A01 T02500093  RH  037%=      5-min Rain = 0
KFR1 241501Z 22009KT 25/09 A3027 RMK A01 T02480094  RH  038%=      5-min Rain = 0
KFR1 241502Z 22009KT 25/09 A3027 RMK A01 T02480094  RH  038%=      5-min Rain = 0
KFR1 241503Z 22006KT 25/10 A3027 RMK A01 T02500098  RH  038%=      5-min Rain = 0
KFR1 241504Z 23009G14KT 25/10 A3027 RMK A01 T02520095  RH  037%=      5-min Rain = 0
KFR1 241505Z 21011KT 25/09 A3027 RMK A01 T02530093  RH  036%=      5-min Rain = 0
KFR1 241506Z 22007KT 25/09 A3027 RMK A01 T02510094  RH  037%=      5-min Rain = 0
KFR1 241507Z 21011KT 25/09 A3027 RMK A01 T02530094  RH  037%=      5-min Rain = 0
KFR1 241508Z 22011KT 25/09 A3027 RMK A01 T02520092  RH  036%=      5-min Rain = 0
KFR1 241509Z 22011KT 25/09 A3027 RMK A01 T02500091  RH  037%=      5-min Rain = 0
KFR1 241510Z 20011KT 25/09 A3027 RMK A01 T02490091  RH  037%=      5-min Rain = 0
KFR1 241511Z 20010KT 25/09 A3027 RMK A01 T02480092  RH  037%=      5-min Rain = 0
KFR1 241512Z 22011KT 25/09 A3027 RMK A01 T02500093  RH  037%=      5-min Rain = 0
KFR1 241513Z 23011KT 25/09 A3027 RMK A01 T02520092  RH  036%=      5-min Rain = 0
KFR1 241514Z 22011KT 25/09 A3027 RMK A01 T02520093  RH  036%=      5-min Rain = 0
KFR1 241515Z 21011KT 25/09 A3027 RMK A01 T02540094  RH  036%=      5-min Rain = 0
KFR1 241516Z 21010KT 25/09 A3027 RMK A01 T02520092  RH  036%=      5-min Rain = 0
KFR1 241517Z 23015KT 25/09 A3027 RMK A01 T02510092  RH  037%=      5-min Rain = 0
KFR1 241518Z 23013KT 25/09 A3027 RMK A01 T02520091  RH  036%=      5-min Rain = 0
KFR1 241519Z 22011KT 25/09 A3027 RMK A01 T02520091  RH  036%=      5-min Rain = 0
KFR1 241520Z 22011KT 25/09 A3026 RMK A01 T02530091  RH  036%=      5-min Rain = 0
KFR1 241521Z 22011KT 25/09 A3026 RMK A01 T02540092  RH  036%=      5-min Rain = 0
KFR1 241522Z 21012KT 26/09 A3026 RMK A01 T02560092  RH  035%=      5-min Rain = 0
KFR1 241523Z 21011KT 26/09 A3026 RMK A01 T02570092  RH  035%=      5-min Rain = 0
KFR1 241524Z 21009KT 26/09 A3026 RMK A01 T02570093  RH  035%=      5-min Rain = 0
KFR1 241525Z 22012KT 26/09 A3026 RMK A01 T02570092  RH  035%=      5-min Rain = 0
KFR1 241526Z 20012KT 26/09 A3026 RMK A01 T02550090  RH  035%=      5-min Rain = 0
KFR1 241527Z 20011G16KT 25/09 A3026 RMK A01 T02540092  RH  036%=      5-min Rain = 0
KFR1 241528Z 21012KT 26/09 A3026 RMK A01 T02560091  RH  035%=      5-min Rain = 0
KFR1 241529Z 21011KT 26/09 A3026 RMK A01 T02560091  RH  035%=      5-min Rain = 0
KFR1 241530Z 21011KT 26/09 A3026 RMK A01 T02550091  RH  035%=      5-min Rain = 0
KFR1 241531Z 22010KT 26/09 A3026 RMK A01 T02550092  RH  036%=      5-min Rain = 0
KFR1 241532Z 23010KT 26/09 A3026 RMK A01 T02560093  RH  036%=      5-min Rain = 0
KFR1 241533Z 23011KT 26/09 A3026 RMK A01 T02580091  RH  035%=      5-min Rain = 0
KFR1 241534Z 21008KT 26/09 A3026 RMK A01 T02570092  RH  035%=      5-min Rain = 0
KFR1 241535Z 21008KT 26/09 A3026 RMK A01 T02570094  RH  036%=      5-min Rain = 0
KFR1 241536Z 20012G17KT 26/09 A3026 RMK A01 T02600093  RH  035%=      5-min Rain = 0
KFR1 241537Z 21013KT 26/09 A3026 RMK A01 T02600092  RH  035%=      5-min Rain = 0
KFR1 241538Z 22015KT 26/09 A3026 RMK A01 T02590090  RH  034%=      5-min Rain = 0
KFR1 241539Z 22012KT 26/09 A3026 RMK A01 T02570089  RH  035%=      5-min Rain = 0
KFR1 241540Z 22011KT 26/09 A3026 RMK A01 T02560091  RH  035%=      5-min Rain = 0
KFR1 241541Z 19012KT 26/09 A3026 RMK A01 T02580093  RH  035%=      5-min Rain = 0
KFR1 241542Z 20011KT 26/10 A3025 RMK A01 T02600095  RH  035%=      5-min Rain = 0
KFR1 241543Z 20012G17KT 26/10 A3025 RMK A01 T02620096  RH  035%=      5-min Rain = 0
KFR1 241544Z 21011KT 26/09 A3026 RMK A01 T02630093  RH  034%=      5-min Rain = 0
KFR1 241545Z 21009KT 26/09 A3026 RMK A01 T02610094  RH  035%=      5-min Rain = 0
KFR1 241546Z 21011KT 26/10 A3025 RMK A01 T02630095  RH  035%=      5-min Rain = 0
KFR1 241547Z 22013KT 26/10 A3025 RMK A01 T02640095  RH  035%=      5-min Rain = 0
KFR1 241548Z 22015KT 26/09 A3025 RMK A01 T02640093  RH  034%=      5-min Rain = 0
KFR1 241549Z 23013KT 26/09 A3025 RMK A01 T02620092  RH  034%=      5-min Rain = 0
KFR1 241550Z 21012KT 26/09 A3025 RMK A01 T02620094  RH  035%=      5-min Rain = 0
KFR1 241551Z 21013KT 26/09 A3025 RMK A01 T02630094  RH  035%=      5-min Rain = 0
KFR1 241552Z 21012KT 26/09 A3025 RMK A01 T02630094  RH  034%=      5-min Rain = 0
KFR1 241553Z 20012KT 26/10 A3025 RMK A01 T02640095  RH  034%=      5-min Rain = 0
KFR1 241554Z 21014KT 27/10 A3025 RMK A01 T02660095  RH  034%=      5-min Rain = 0
KFR1 241555Z 22012KT 27/10 A3025 RMK A01 T02650095  RH  034%=      5-min Rain = 0
KFR1 241556Z 20011KT 26/10 A3025 RMK A01 T02640095  RH  035%=      5-min Rain = 0
KFR1 241557Z 19011KT 27/10 A3025 RMK A01 T02650096  RH  034%=      5-min Rain = 0
KFR1 241558Z 21012KT 27/10 A3025 RMK A01 T02660096  RH  034%=      5-min Rain = 0
KFR1 241559Z 22014KT 27/10 A3025 RMK A01 T02670095  RH  034%=      5-min Rain = 0
KFR1 241600Z 23014KT 27/09 A3025 RMK A01 T02670094  RH  034%=      5-min Rain = 0
KFR1 241601Z 22014G19KT 27/09 A3025 RMK A01 T02660094  RH  034%=      5-min Rain = 0
KFR1 241602Z 21012KT 27/10 A3025 RMK A01 T02670095  RH  034%=      5-min Rain = 0
KFR1 241603Z 21012KT 27/09 A3025 RMK A01 T02660093  RH  034%=      5-min Rain = 0
KFR1 241604Z 22010KT 26/10 A3025 RMK A01 T02640095  RH  034%=      5-min Rain = 0
KFR1 241605Z 19012KT 27/10 A3025 RMK A01 T02660097  RH  035%=      5-min Rain = 0
KFR1 241606Z 20013KT 27/10 A3025 RMK A01 T02690096  RH  034%=      5-min Rain = 0
KFR1 241607Z 20012KT 27/10 A3025 RMK A01 T02690097  RH  034%=      5-min Rain = 0
KFR1 241608Z 20011KT 27/10 A3024 RMK A01 T02690095  RH  033%=      5-min Rain = 0
KFR1 241609Z 21012G17KT 27/10 A3024 RMK A01 T02680098  RH  034%=      5-min Rain = 0
KFR1 241610Z 22016KT 27/10 A3024 RMK A01 T02710098  RH  034%=      5-min Rain = 0
KFR1 241611Z 22013KT 27/10 A3025 RMK A01 T02710096  RH  033%=      5-min Rain = 0
KFR1 241612Z 22012KT 27/10 A3025 RMK A01 T02690097  RH  034%=      5-min Rain = 0
KFR1 241613Z 21013KT 27/10 A3024 RMK A01 T02690097  RH  034%=      5-min Rain = 0
KFR1 241614Z 20011KT 27/10 A3024 RMK A01 T02690098  RH  034%=      5-min Rain = 0
KFR1 241615Z 21013KT 27/10 A3024 RMK A01 T02700097  RH  034%=      5-min Rain = 0
KFR1 241616Z 22014KT 27/10 A3024 RMK A01 T02700096  RH  034%=      5-min Rain = 0
KFR1 241617Z 22014KT 27/10 A3024 RMK A01 T02680096  RH  034%=      5-min Rain = 0
KFR1 241618Z 22013KT 27/10 A3024 RMK A01 T02680096  RH  034%=      5-min Rain = 0
KFR1 241619Z 22011KT 27/10 A3024 RMK A01 T02680096  RH  034%=      5-min Rain = 0
KFR1 241620Z 22010KT 27/10 A3024 RMK A01 T02680096  RH  034%=      5-min Rain = 0
KFR1 241621Z 20010KT 27/10 A3024 RMK A01 T02680097  RH  034%=      5-min Rain = 0
KFR1 241622Z 19010KT 27/10 A3024 RMK A01 T02690096  RH  034%=      5-min Rain = 0
KFR1 241623Z 18011KT 27/10 A3024 RMK A01 T02690097  RH  034%=      5-min Rain = 0
KFR1 241624Z 19010KT 27/10 A3024 RMK A01 T02700098  RH  034%=      5-min Rain = 0
KFR1 241625Z 21011KT 27/10 A3024 RMK A01 T02710096  RH  033%=      5-min Rain = 0
KFR1 241626Z 20013KT 27/10 A3024 RMK A01 T02710098  RH  034%=      5-min Rain = 0
KFR1 241627Z 19011KT 27/10 A3024 RMK A01 T02730099  RH  034%=      5-min Rain = 0
KFR1 241628Z 20010KT 28/10 A3024 RMK A01 T02750100  RH  033%=      5-min Rain = 0
KFR1 241629Z 20011KT 28/10 A3024 RMK A01 T02760099  RH  033%=      5-min Rain = 0
KFR1 241630Z 22008KT 28/10 A3024 RMK A01 T02750097  RH  033%=      5-min Rain = 0
KFR1 241631Z 20007KT 27/10 A3024 RMK A01 T02740098  RH  033%=      5-min Rain = 0
KFR1 241632Z 22006KT 28/10 A3024 RMK A01 T02750097  RH  033%=      5-min Rain = 0
KFR1 241633Z 22008G14KT 28/10 A3024 RMK A01 T02750100  RH  033%=      5-min Rain = 0
KFR1 241634Z 23011KT 28/10 A3024 RMK A01 T02750098  RH  033%=      5-min Rain = 0
KFR1 241635Z 22011KT 28/10 A3024 RMK A01 T02760098  RH  033%=      5-min Rain = 0
KFR1 241636Z 22008KT 27/10 A3024 RMK A01 T02740098  RH  033%=      5-min Rain = 0
KFR1 241637Z 23009G16KT 28/10 A3024 RMK A01 T02750099  RH  033%=      5-min Rain = 0
KFR1 241638Z 24011KT 28/10 A3023 RMK A01 T02760098  RH  033%=      5-min Rain = 0
KFR1 241639Z 24010KT 28/10 A3023 RMK A01 T02770097  RH  032%=      5-min Rain = 0
KFR1 241640Z 23012KT 28/10 A3023 RMK A01 T02760098  RH  033%=      5-min Rain = 0
KFR1 241641Z 22013KT 28/10 A3023 RMK A01 T02770099  RH  033%=      5-min Rain = 0
KFR1 241642Z 22010KT 28/10 A3023 RMK A01 T02770100  RH  033%=      5-min Rain = 0
KFR1 241643Z 22011KT 28/10 A3023 RMK A01 T02770101  RH  033%=      5-min Rain = 0
KFR1 241644Z 20011KT 28/10 A3023 RMK A01 T02780100  RH  033%=      5-min Rain = 0
KFR1 241645Z 21009KT 28/10 A3023 RMK A01 T02770099  RH  033%=      5-min Rain = 0
KFR1 241646Z 21010KT 28/10 A3023 RMK A01 T02760099  RH  033%=      5-min Rain = 0
KFR1 241647Z 20009KT 28/10 A3023 RMK A01 T02770102  RH  034%=      5-min Rain = 0
KFR1 241648Z 22008KT 28/10 A3023 RMK A01 T02820101  RH  032%=      5-min Rain = 0
KFR1 241649Z 22007KT 28/10 A3023 RMK A01 T02820100  RH  032%=      5-min Rain = 0
KFR1 241650Z 24007KT 28/10 A3023 RMK A01 T02810101  RH  032%=      5-min Rain = 0
KFR1 241651Z 22008G13KT 28/11 A3023 RMK A01 T02830105  RH  033%=      5-min Rain = 0
KFR1 241652Z 23010KT 29/10 A3023 RMK A01 T02860101  RH  032%=      5-min Rain = 0
KFR1 241653Z 20009KT 28/10 A3023 RMK A01 T02840101  RH  032%=      5-min Rain = 0
KFR1 241654Z 19010KT 28/10 A3023 RMK A01 T02840101  RH  032%=      5-min Rain = 0
KFR1 241655Z 19009KT 28/10 A3023 RMK A01 T02840101  RH  032%=      5-min Rain = 0
KFR1 241656Z 22007KT 28/10 A3023 RMK A01 T02840102  RH  032%=      5-min Rain = 0
KFR1 241657Z 24008KT 29/10 A3023 RMK A01 T02850101  RH  032%=      5-min Rain = 0
KFR1 241658Z 24007KT 29/10 A3023 RMK A01 T02870102  RH  032%=      5-min Rain = 0
KFR1 241659Z 20006KT 29/10 A3023 RMK A01 T02870104  RH  032%=      5-min Rain = 0
KFR1 241700Z 20006KT 29/11 A3022 RMK A01 T02890105  RH  032%=      5-min Rain = 0
KFR1 241701Z 20008KT 29/10 A3022 RMK A01 T02880102  RH  031%=      5-min Rain = 0
KFR1 241702Z 19008KT 29/10 A3022 RMK A01 T02870103  RH  032%=      5-min Rain = 0
KFR1 241703Z 20009KT 29/11 A3022 RMK A01 T02900106  RH  032%=      5-min Rain = 0
KFR1 241704Z 23007KT 29/10 A3022 RMK A01 T02910103  RH  031%=      5-min Rain = 0
KFR1 241705Z 22009KT 29/10 A3022 RMK A01 T02900102  RH  031%=      5-min Rain = 0
KFR1 241706Z 21010G15KT 29/11 A3022 RMK A01 T02890105  RH  032%=      5-min Rain = 0
KFR1 241707Z 22011KT 29/10 A3022 RMK A01 T02890103  RH  031%=      5-min Rain = 0
KFR1 241708Z 22008KT 29/10 A3022 RMK A01 T02880103  RH  032%=      5-min Rain = 0
KFR1 241709Z 19008G16KT 29/10 A3022 RMK A01 T02870104  RH  032%=      5-min Rain = 0
KFR1 241710Z 24012G19KT 29/11 A3022 RMK A01 T02880105  RH  032%=      5-min Rain = 0
KFR1 241711Z 22012KT 29/11 A3022 RMK A01 T02910105  RH  032%=      5-min Rain = 0
KFR1 241712Z 21010KT 29/10 A3022 RMK A01 T02890103  RH  031%=      5-min Rain = 0
KFR1 241713Z 22009KT 29/10 A3022 RMK A01 T02860102  RH  032%=      5-min Rain = 0
KFR1 241714Z 23007KT 28/10 A3022 RMK A01 T02840102  RH  032%=      5-min Rain = 0
KFR1 241715Z 24006KT 29/10 A3022 RMK A01 T02850103  RH  032%=      5-min Rain = 0
KFR1 241716Z 18007KT 29/11 A3022 RMK A01 T02890105  RH  032%=      5-min Rain = 0
KFR1 241717Z 17004KT 29/11 A3022 RMK A01 T02900105  RH  032%=      5-min Rain = 0
KFR1 241718Z 21005KT 29/11 A3022 RMK A01 T02900106  RH  032%=      5-min Rain = 0
KFR1 241719Z 21006KT 29/11 A3022 RMK A01 T02910106  RH  032%=      5-min Rain = 0
KFR1 241720Z 24009KT 29/11 A3022 RMK A01 T02930108  RH  032%=      5-min Rain = 0
KFR1 241721Z 23014KT 29/11 A3022 RMK A01 T02930107  RH  031%=      5-min Rain = 0
KFR1 241722Z 23013KT 29/11 A3022 RMK A01 T02920105  RH  031%=      5-min Rain = 0
KFR1 241723Z 22009KT 29/11 A3022 RMK A01 T02920106  RH  032%=      5-min Rain = 0
KFR1 241724Z 23009KT 29/11 A3022 RMK A01 T02920107  RH  032%=      5-min Rain = 0
KFR1 241725Z 22010KT 29/11 A3022 RMK A01 T02930107  RH  032%=      5-min Rain = 0
KFR1 241726Z 23009KT 30/11 A3022 RMK A01 T02960109  RH  031%=      5-min Rain = 0
KFR1 241727Z 23008KT 30/11 A3021 RMK A01 T02970105  RH  031%=      5-min Rain = 0
KFR1 241728Z 24009KT 29/11 A3021 RMK A01 T02930106  RH  031%=      5-min Rain = 0
KFR1 241729Z 22010KT 29/11 A3021 RMK A01 T02930106  RH  031%=      5-min Rain = 0
KFR1 241730Z 24008KT 29/11 A3021 RMK A01 T02940109  RH  032%=      5-min Rain = 0
KFR1 241731Z 23012KT 30/11 A3021 RMK A01 T02970110  RH  031%=      5-min Rain = 0
KFR1 241732Z 23014KT 30/11 A3021 RMK A01 T02970106  RH  030%=      5-min Rain = 0
KFR1 241733Z 23013KT 29/11 A3021 RMK A01 T02940106  RH  031%=      5-min Rain = 0
KFR1 241734Z 24011KT 29/11 A3021 RMK A01 T02920106  RH  031%=      5-min Rain = 0
KFR1 241735Z 21007KT 29/11 A3021 RMK A01 T02920108  RH  032%=      5-min Rain = 0
KFR1 241736Z 19009KT 30/11 A3021 RMK A01 T02950107  RH  031%=      5-min Rain = 0
KFR1 241737Z 21006KT 29/11 A3021 RMK A01 T02940106  RH  031%=      5-min Rain = 0
KFR1 241738Z 25007KT 29/11 A3021 RMK A01 T02930108  RH  032%=      5-min Rain = 0
KFR1 241739Z 25010KT 30/11 A3021 RMK A01 T02950109  RH  032%=      5-min Rain = 0
KFR1 241740Z 26008KT 30/11 A3021 RMK A01 T02950107  RH  031%=      5-min Rain = 0
KFR1 241741Z 27007KT 29/11 A3021 RMK A01 T02930109  RH  032%=      5-min Rain = 0
KFR1 241742Z 26006KT 29/11 A3021 RMK A01 T02940112  RH  032%=      5-min Rain = 0
KFR1 241743Z 27010KT 30/11 A3021 RMK A01 T02980113  RH  032%=      5-min Rain = 0
KFR1 241744Z 25010KT 30/11 A302 RMK A01 T03000112  RH  031%=      5-min Rain = 0
KFR1 241745Z 24010KT 30/11 A302 RMK A01 T02980107  RH  031%=      5-min Rain = 0
KFR1 241746Z 24011KT 30/11 A302 RMK A01 T02970109  RH  031%=      5-min Rain = 0
KFR1 241747Z 23010KT 30/11 A302 RMK A01 T02970109  RH  031%=      5-min Rain = 0
KFR1 241748Z 24014KT 30/11 A302 RMK A01 T02990109  RH  031%=      5-min Rain = 0
KFR1 241749Z 24010KT 30/11 A302 RMK A01 T02990109  RH  031%=      5-min Rain = 0
KFR1 241750Z 24013KT 30/11 A302 RMK A01 T02990109  RH  031%=      5-min Rain = 0
KFR1 241751Z 25013KT 30/11 A302 RMK A01 T02980108  RH  031%=      5-min Rain = 0
KFR1 241752Z 25009G14KT 30/11 A302 RMK A01 T02970109  RH  031%=      5-min Rain = 0
KFR1 241753Z 24008KT 30/11 A302 RMK A01 T02980111  RH  031%=      5-min Rain = 0
KFR1 241754Z 25008KT 30/11 A302 RMK A01 T03010109  RH  031%=      5-min Rain = 0
KFR1 241755Z 23009KT 30/11 A302 RMK A01 T03000110  RH  031%=      5-min Rain = 0
KFR1 241756Z 22009KT 30/11 A302 RMK A01 T03000110  RH  031%=      5-min Rain = 0
KFR1 241757Z 22007KT 30/11 A302 RMK A01 T02990110  RH  031%=      5-min Rain = 0
KFR1 241758Z 21005KT 30/11 A302 RMK A01 T02980109  RH  031%=      5-min Rain = 0
KFR1 241759Z 21006KT 30/11 A302 RMK A01 T02970109  RH  031%=      5-min Rain = 0
KFR1 241800Z 23007G13KT 30/11 A302 RMK A01 T02950108  RH  031%=      5-min Rain = 0
KFR1 241801Z 22010KT 30/11 A302 RMK A01 T02970110  RH  031%=      5-min Rain = 0
KFR1 241802Z 22009KT 30/11 A302 RMK A01 T02980109  RH  031%=      5-min Rain = 0
KFR1 241803Z 23010KT 30/11 A302 RMK A01 T02970110  RH  031%=      5-min Rain = 0
KFR1 241804Z 23009KT 30/11 A302 RMK A01 T02970111  RH  032%=      5-min Rain = 0
KFR1 241805Z 22010KT 30/11 A302 RMK A01 T03020112  RH  031%=      5-min Rain = 0
KFR1 241806Z 21007KT 30/12 A302 RMK A01 T03020115  RH  032%=      5-min Rain = 0
KFR1 241807Z 20007KT 30/11 A302 RMK A01 T03030113  RH  031%=      5-min Rain = 0
KFR1 241808Z 22008KT 30/11 A302 RMK A01 T03000112  RH  031%=      5-min Rain = 0
KFR1 241809Z 22007KT 30/11 A302 RMK A01 T02990111  RH  031%=      5-min Rain = 0
KFR1 241810Z 24006KT 30/11 A302 RMK A01 T02990111  RH  031%=      5-min Rain = 0
KFR1 241811Z 24007KT 30/11 A302 RMK A01 T03030111  RH  031%=      5-min Rain = 0
KFR1 241812Z 24011G16KT 31/11 A302 RMK A01 T03050110  RH  030%=      5-min Rain = 0
KFR1 241813Z 23008KT 30/11 A302 RMK A01 T03040108  RH  030%=      5-min Rain = 0
KFR1 241814Z 22006KT 30/11 A302 RMK A01 T02990109  RH  031%=      5-min Rain = 0
KFR1 241815Z 23010KT 30/11 A302 RMK A01 T03010114  RH  031%=      5-min Rain = 0
KFR1 241816Z 21009KT 30/11 A302 RMK A01 T03030113  RH  031%=      5-min Rain = 0
KFR1 241817Z 20009KT 31/12 A302 RMK A01 T03050115  RH  031%=      5-min Rain = 0
KFR1 241818Z 20010KT 31/11 A302 RMK A01 T03050114  RH  031%=      5-min Rain = 0
KFR1 241819Z 20008KT 30/11 A302 RMK A01 T03040114  RH  031%=      5-min Rain = 0
KFR1 241820Z 20006KT 30/11 A302 RMK A01 T03010114  RH  031%=      5-min Rain = 0
KFR1 241821Z 20006KT 30/11 A302 RMK A01 T03000112  RH  031%=      5-min Rain = 0
KFR1 241822Z 19005KT 30/11 A302 RMK A01 T02990112  RH  032%=      5-min Rain = 0
KFR1 241823Z 21008KT 30/11 A302 RMK A01 T02980113  RH  032%=      5-min Rain = 0
KFR1 241824Z 22009KT 30/12 A302 RMK A01 T03000115  RH  032%=      5-min Rain = 0
KFR1 241825Z 23008KT 30/11 A302 RMK A01 T03020114  RH  031%=      5-min Rain = 0
KFR1 241826Z 22005KT 30/11 A302 RMK A01 T03010112  RH  031%=      5-min Rain = 0
KFR1 241827Z 22005KT 30/11 A3019 RMK A01 T02980113  RH  032%=      5-min Rain = 0
KFR1 241828Z 22006KT 30/11 A3019 RMK A01 T02980114  RH  032%=      5-min Rain = 0
KFR1 241829Z 21006KT 30/12 A3019 RMK A01 T03010115  RH  032%=      5-min Rain = 0
KFR1 241830Z 23009KT 31/11 A3019 RMK A01 T03060113  RH  031%=      5-min Rain = 0
KFR1 241831Z 22007KT 30/11 A3019 RMK A01 T03040110  RH  030%=      5-min Rain = 0
KFR1 241832Z 20007KT 30/11 A3019 RMK A01 T03020113  RH  031%=      5-min Rain = 0
KFR1 241833Z 17006KT 30/11 A3019 RMK A01 T03040113  RH  031%=      5-min Rain = 0
KFR1 241834Z 17007KT 30/11 A3019 RMK A01 T03040112  RH  031%=      5-min Rain = 0
KFR1 241835Z 19009KT 30/12 A3019 RMK A01 T03030115  RH  031%=      5-min Rain = 0
KFR1 241836Z 20011KT 31/12 A3019 RMK A01 T03070117  RH  031%=      5-min Rain = 0
KFR1 241837Z 20007KT 31/11 A3019 RMK A01 T03100114  RH  030%=      5-min Rain = 0
KFR1 241838Z 20006KT 31/11 A3019 RMK A01 T03090114  RH  030%=      5-min Rain = 0
KFR1 241839Z 19007KT 31/11 A3019 RMK A01 T03070113  RH  030%=      5-min Rain = 0
KFR1 241840Z 17008KT 31/11 A3019 RMK A01 T03060113  RH  031%=      5-min Rain = 0
KFR1 241841Z 16006KT 31/11 A3019 RMK A01 T03050113  RH  031%=      5-min Rain = 0
KFR1 241842Z 18006KT 31/11 A3019 RMK A01 T03050113  RH  031%=      5-min Rain = 0
KFR1 241843Z 20008KT 31/11 A3019 RMK A01 T03050113  RH  031%=      5-min Rain = 0
KFR1 241844Z 21006KT 31/11 A3019 RMK A01 T03060111  RH  030%=      5-min Rain = 0
KFR1 241845Z 18005KT 31/11 A3019 RMK A01 T03060113  RH  031%=      5-min Rain = 0
KFR1 241846Z 16004KT 31/11 A3018 RMK A01 T03060113  RH  030%=      5-min Rain = 0
KFR1 241847Z 20010KT 31/12 A3018 RMK A01 T03080116  RH  031%=      5-min Rain = 0
KFR1 241848Z 20010KT 31/12 A3018 RMK A01 T03090116  RH  030%=      5-min Rain = 0
KFR1 241849Z 19007KT 31/12 A3018 RMK A01 T03070116  RH  031%=      5-min Rain = 0
KFR1 241850Z 19009KT 31/12 A3018 RMK A01 T03080118  RH  031%=      5-min Rain = 0
KFR1 241851Z 19008KT 31/12 A3018 RMK A01 T03090115  RH  030%=      5-min Rain = 0
KFR1 241852Z 17007KT 31/11 A3018 RMK A01 T03070114  RH  030%=      5-min Rain = 0
KFR1 241853Z 16006KT 31/11 A3018 RMK A01 T03060113  RH  031%=      5-min Rain = 0
KFR1 241854Z 16004KT 31/12 A3018 RMK A01 T03050115  RH  031%=      5-min Rain = 0
KFR1 241855Z 19005KT 31/12 A3018 RMK A01 T03080116  RH  031%=      5-min Rain = 0
KFR1 241856Z 17004KT 31/12 A3018 RMK A01 T03110119  RH  031%=      5-min Rain = 0
KFR1 241857Z 22006KT 31/12 A3018 RMK A01 T03140118  RH  030%=      5-min Rain = 0
KFR1 241858Z 23009KT 31/12 A3018 RMK A01 T03140116  RH  030%=      5-min Rain = 0
KFR1 241859Z 24007KT 31/12 A3018 RMK A01 T03140116  RH  030%=      5-min Rain = 0
KFR1 241900Z 24005KT 31/12 A3018 RMK A01 T03140115  RH  029%=      5-min Rain = 0
KFR1 241901Z 22006KT 31/12 A3018 RMK A01 T03140116  RH  030%=      5-min Rain = 0
KFR1 241902Z 21010KT 32/12 A3017 RMK A01 T03160118  RH  030%=      5-min Rain = 0
KFR1 241903Z 22009KT 31/11 A3017 RMK A01 T03140114  RH  029%=      5-min Rain = 0
KFR1 241904Z 23006KT 31/11 A3018 RMK A01 T03090113  RH  030%=      5-min Rain = 0
KFR1 241905Z 24004KT 31/11 A3017 RMK A01 T03070113  RH  030%=      5-min Rain = 0
KFR1 241906Z 23004KT 31/11 A3017 RMK A01 T03070114  RH  030%=      5-min Rain = 0
KFR1 241907Z 22006KT 31/12 A3017 RMK A01 T03090118  RH  031%=      5-min Rain = 0
KFR1 241908Z 22008KT 31/12 A3017 RMK A01 T03140119  RH  030%=      5-min Rain = 0
KFR1 241909Z 21008KT 32/12 A3017 RMK A01 T03150117  RH  030%=      5-min Rain = 0
KFR1 241910Z 21006KT 31/12 A3017 RMK A01 T03130115  RH  030%=      5-min Rain = 0
KFR1 241911Z 23004KT 31/12 A3017 RMK A01 T03110115  RH  030%=      5-min Rain = 0
KFR1 241912Z 22006KT 31/12 A3017 RMK A01 T03110116  RH  030%=      5-min Rain = 0
KFR1 241913Z 19006KT 31/12 A3017 RMK A01 T03120118  RH  030%=      5-min Rain = 0
KFR1 241914Z 19008KT 31/12 A3017 RMK A01 T03140117  RH  030%=      5-min Rain = 0
KFR1 241915Z 21011KT 31/12 A3017 RMK A01 T03140117  RH  030%=      5-min Rain = 0
KFR1 241916Z 21008KT 31/11 A3017 RMK A01 T03140113  RH  029%=      5-min Rain = 0
KFR1 241917Z 17010KT 31/12 A3017 RMK A01 T03120116  RH  030%=      5-min Rain = 0
KFR1 241918Z 21007KT 31/11 A3017 RMK A01 T03120114  RH  030%=      5-min Rain = 0
KFR1 241919Z 20008KT 31/12 A3017 RMK A01 T03140118  RH  030%=      5-min Rain = 0
KFR1 241920Z 19012KT 32/12 A3017 RMK A01 T03190117  RH  029%=      5-min Rain = 0
KFR1 241921Z 20007KT 32/12 A3017 RMK A01 T03190115  RH  029%=      5-min Rain = 0
KFR1 241922Z 20006KT 32/12 A3017 RMK A01 T03170116  RH  029%=      5-min Rain = 0
KFR1 241923Z 22006KT 32/12 A3017 RMK A01 T03190118  RH  029%=      5-min Rain = 0
KFR1 241924Z 25004KT 32/11 A3017 RMK A01 T03200114  RH  028%=      5-min Rain = 0
KFR1 241925Z 21003KT 32/11 A3017 RMK A01 T03180114  RH  029%=      5-min Rain = 0
KFR1 241926Z 23006KT 32/12 A3017 RMK A01 T03180117  RH  029%=      5-min Rain = 0
KFR1 241927Z 22009KT 32/12 A3016 RMK A01 T03200115  RH  029%=      5-min Rain = 0
KFR1 241928Z 22008KT 32/11 A3016 RMK A01 T03200114  RH  028%=      5-min Rain = 0
KFR1 241929Z 22006KT 32/11 A3016 RMK A01 T03170111  RH  028%=      5-min Rain = 0
KFR1 241930Z 17003KT 32/12 A3016 RMK A01 T03150116  RH  030%=      5-min Rain = 0
KFR1 241931Z 21008KT 32/12 A3016 RMK A01 T03190116  RH  029%=      5-min Rain = 0
KFR1 241932Z 21008KT 32/12 A3016 RMK A01 T03200115  RH  029%=      5-min Rain = 0
KFR1 241933Z 22008G13KT 32/11 A3016 RMK A01 T03200114  RH  028%=      5-min Rain = 0
KFR1 241934Z 20009KT 32/12 A3016 RMK A01 T03200115  RH  029%=      5-min Rain = 0
KFR1 241935Z 19007KT 32/11 A3016 RMK A01 T03180113  RH  028%=      5-min Rain = 0
KFR1 241936Z 20002KT 32/11 A3016 RMK A01 T03160114  RH  029%=      5-min Rain = 0
KFR1 241937Z 22005KT 32/11 A3016 RMK A01 T03160112  RH  029%=      5-min Rain = 0
KFR1 241938Z 22008KT 32/11 A3016 RMK A01 T03150112  RH  029%=      5-min Rain = 0
KFR1 241939Z 21006KT 31/11 A3016 RMK A01 T03140114  RH  029%=      5-min Rain = 0
KFR1 241940Z 23004KT 32/11 A3016 RMK A01 T03160111  RH  028%=      5-min Rain = 0
KFR1 241941Z 19003KT 32/11 A3016 RMK A01 T03150111  RH  029%=      5-min Rain = 0
KFR1 241942Z 15002KT 31/11 A3016 RMK A01 T03140111  RH  029%=      5-min Rain = 0
KFR1 241943Z 17001KT 32/12 A3016 RMK A01 T03160115  RH  029%=      5-min Rain = 0
KFR1 241944Z 30002KT 32/11 A3016 RMK A01 T03200113  RH  028%=      5-min Rain = 0
KFR1 241945Z 21007KT 32/12 A3016 RMK A01 T03230115  RH  028%=      5-min Rain = 0
KFR1 241946Z 23005KT 32/12 A3016 RMK A01 T03240115  RH  028%=      5-min Rain = 0
KFR1 241947Z 23006KT 33/12 A3016 RMK A01 T03250117  RH  028%=      5-min Rain = 0
KFR1 241948Z 22009KT 33/12 A3016 RMK A01 T03290115  RH  027%=      5-min Rain = 0
KFR1 241949Z 20007KT 33/11 A3016 RMK A01 T03250112  RH  027%=      5-min Rain = 0
KFR1 241950Z 19005KT 32/11 A3016 RMK A01 T03210112  RH  028%=      5-min Rain = 0
KFR1 241951Z 21003KT 32/11 A3016 RMK A01 T03180109  RH  028%=      5-min Rain = 0
KFR1 241952Z 17004G9KT 32/11 A3016 RMK A01 T03160112  RH  029%=      5-min Rain = 0
KFR1 241953Z 24008G15KT 32/12 A3016 RMK A01 T03200115  RH  028%=      5-min Rain = 0
KFR1 241954Z 23011KT 32/11 A3015 RMK A01 T03230112  RH  028%=      5-min Rain = 0
KFR1 241955Z 24008KT 32/11 A3016 RMK A01 T03230112  RH  028%=      5-min Rain = 0
KFR1 241956Z 22005KT 32/12 A3015 RMK A01 T03230116  RH  028%=      5-min Rain = 0
KFR1 241957Z 22008KT 33/12 A3015 RMK A01 T03260116  RH  028%=      5-min Rain = 0
KFR1 241958Z 19008G13KT 33/12 A3015 RMK A01 T03270119  RH  028%=      5-min Rain = 0
KFR1 241959Z 18010KT 33/12 A3015 RMK A01 T03270118  RH  028%=      5-min Rain = 0
KFR1 242000Z 18005KT 32/12 A3015 RMK A01 T03230116  RH  028%=      5-min Rain = 0
KFR1 242001Z 17008KT 32/12 A3015 RMK A01 T03210117  RH  029%=      5-min Rain = 0
KFR1 242002Z 19009KT 32/12 A3015 RMK A01 T03230120  RH  029%=      5-min Rain = 0
KFR1 242003Z 17010KT 32/12 A3015 RMK A01 T03230116  RH  028%=      5-min Rain = 0
KFR1 242004Z 17006KT 32/12 A3015 RMK A01 T03220117  RH  029%=      5-min Rain = 0
KFR1 242005Z 16006KT 32/12 A3015 RMK A01 T03230118  RH  029%=      5-min Rain = 0
KFR1 242006Z 16005KT 32/12 A3015 RMK A01 T03230117  RH  028%=      5-min Rain = 0
KFR1 242007Z 21007KT 32/12 A3015 RMK A01 T03230118  RH  029%=      5-min Rain = 0
KFR1 242008Z 22013KT 33/12 A3015 RMK A01 T03250116  RH  028%=      5-min Rain = 0
KFR1 242009Z 22009KT 32/12 A3015 RMK A01 T03240115  RH  028%=      5-min Rain = 0
KFR1 242010Z 20009G15KT 32/12 A3015 RMK A01 T03210115  RH  028%=      5-min Rain = 0
KFR1 242011Z 18012KT 32/12 A3015 RMK A01 T03200116  RH  029%=      5-min Rain = 0
KFR1 242012Z 17009KT 32/12 A3015 RMK A01 T03210118  RH  029%=      5-min Rain = 0
KFR1 242013Z 18011KT 32/12 A3015 RMK A01 T03240117  RH  028%=      5-min Rain = 0
KFR1 242014Z 19009KT 32/11 A3015 RMK A01 T03230114  RH  028%=      5-min Rain = 0
KFR1 242015Z 16007G13KT 32/12 A3015 RMK A01 T03200117  RH  029%=      5-min Rain = 0
KFR1 242016Z 15007KT 32/12 A3015 RMK A01 T03230117  RH  028%=      5-min Rain = 0
KFR1 242017Z 15006KT 32/12 A3015 RMK A01 T03230117  RH  028%=      5-min Rain = 0
KFR1 242018Z 13006KT 32/12 A3015 RMK A01 T03230116  RH  028%=      5-min Rain = 0
KFR1 242019Z 12006KT 32/12 A3015 RMK A01 T03220117  RH  029%=      5-min Rain = 0
KFR1 242020Z 14007KT 32/11 A3015 RMK A01 T03220114  RH  028%=      5-min Rain = 0
KFR1 242021Z 17006KT 32/12 A3015 RMK A01 T03200118  RH  029%=      5-min Rain = 0
KFR1 242022Z 16006KT 33/12 A3015 RMK A01 T03250119  RH  029%=      5-min Rain = 0
KFR1 242023Z 19010KT 33/12 A3014 RMK A01 T03280117  RH  028%=      5-min Rain = 0
KFR1 242024Z 19010KT 33/12 A3014 RMK A01 T03280118  RH  028%=      5-min Rain = 0
KFR1 242025Z 18011KT 33/12 A3014 RMK A01 T03300119  RH  028%=      5-min Rain = 0
KFR1 242026Z 19010KT 33/11 A3015 RMK A01 T03300114  RH  027%=      5-min Rain = 0
KFR1 242027Z 21006KT 32/11 A3015 RMK A01 T03230112  RH  028%=      5-min Rain = 0
KFR1 242028Z 22003KT 32/11 A3014 RMK A01 T03190112  RH  028%=      5-min Rain = 0
KFR1 242029Z 19004KT 32/11 A3014 RMK A01 T03200114  RH  028%=      5-min Rain = 0
KFR1 242030Z 16009KT 32/12 A3014 RMK A01 T03220115  RH  028%=      5-min Rain = 0
KFR1 242031Z 17010KT 32/11 A3014 RMK A01 T03230112  RH  027%=      5-min Rain = 0
KFR1 242032Z 17010KT 32/11 A3014 RMK A01 T03230112  RH  027%=      5-min Rain = 0
KFR1 242033Z 15010G16KT 32/11 A3014 RMK A01 T03230113  RH  028%=      5-min Rain = 0
KFR1 242034Z 15009KT 32/11 A3014 RMK A01 T03210110  RH  027%=      5-min Rain = 0
KFR1 242035Z 14007KT 32/11 A3014 RMK A01 T03200109  RH  027%=      5-min Rain = 0
KFR1 242036Z 13006KT 32/11 A3014 RMK A01 T03190109  RH  028%=      5-min Rain = 0
KFR1 242037Z 15004KT 32/11 A3014 RMK A01 T03170107  RH  028%=      5-min Rain = 0
KFR1 242038Z 17006KT 32/11 A3014 RMK A01 T03170114  RH  029%=      5-min Rain = 0
KFR1 242039Z 17009KT 33/12 A3014 RMK A01 T03250117  RH  028%=      5-min Rain = 0
KFR1 242040Z 16010KT 33/12 A3014 RMK A01 T03290116  RH  027%=      5-min Rain = 0
KFR1 242041Z 16009KT 33/12 A3014 RMK A01 T03290115  RH  027%=      5-min Rain = 0
KFR1 242042Z 18009KT 33/12 A3014 RMK A01 T03300115  RH  027%=      5-min Rain = 0
KFR1 242043Z 15007KT 33/11 A3014 RMK A01 T03290111  RH  027%=      5-min Rain = 0
KFR1 242044Z 14005KT 33/11 A3013 RMK A01 T03250109  RH  027%=      5-min Rain = 0
KFR1 242045Z 12006KT 32/11 A3013 RMK A01 T03210110  RH  027%=      5-min Rain = 0
KFR1 242046Z 17010KT 32/11 A3013 RMK A01 T03200111  RH  028%=      5-min Rain = 0
KFR1 242047Z 18010KT 32/11 A3013 RMK A01 T03220112  RH  028%=      5-min Rain = 0
KFR1 242048Z 18006KT 33/12 A3013 RMK A01 T03260115  RH  028%=      5-min Rain = 0
KFR1 242049Z 19006KT 33/11 A3013 RMK A01 T03280113  RH  027%=      5-min Rain = 0
KFR1 242050Z 17008KT 33/11 A3013 RMK A01 T03270113  RH  027%=      5-min Rain = 0
KFR1 242051Z 17009KT 33/11 A3013 RMK A01 T03260114  RH  027%=      5-min Rain = 0
KFR1 242052Z 17007KT 33/11 A3013 RMK A01 T03280114  RH  027%=      5-min Rain = 0
KFR1 242053Z 18009KT 33/11 A3013 RMK A01 T03300114  RH  027%=      5-min Rain = 0
KFR1 242054Z 21012KT 33/12 A3013 RMK A01 T03320116  RH  027%=      5-min Rain = 0
KFR1 242055Z 21013KT 33/11 A3013 RMK A01 T03320111  RH  026%=      5-min Rain = 0
KFR1 242056Z 20012KT 33/11 A3013 RMK A01 T03270109  RH  026%=      5-min Rain = 0
KFR1 242057Z 19008KT 32/11 A3013 RMK A01 T03230109  RH  027%=      5-min Rain = 0
KFR1 242058Z 20011KT 32/11 A3013 RMK A01 T03240111  RH  027%=      5-min Rain = 0
KFR1 242059Z 21013KT 33/11 A3013 RMK A01 T03260108  RH  026%=      5-min Rain = 0
KFR1 242100Z 21011KT 33/11 A3013 RMK A01 T03250108  RH  026%=      5-min Rain = 0
KFR1 242101Z 21008KT 33/11 A3013 RMK A01 T03250108  RH  026%=      5-min Rain = 0
KFR1 242102Z 22007KT 32/11 A3013 RMK A01 T03220106  RH  027%=      5-min Rain = 0
KFR1 242103Z 25007KT 32/11 A3013 RMK A01 T03170105  RH  027%=      5-min Rain = 0
KFR1 242104Z 25005KT 32/10 A3013 RMK A01 T03150104  RH  027%=      5-min Rain = 0
KFR1 242105Z 22002KT 32/10 A3013 RMK A01 T03150104  RH  027%=      5-min Rain = 0
KFR1 242106Z 15002KT 32/10 A3013 RMK A01 T03170103  RH  027%=      5-min Rain = 0
KFR1 242107Z 13007KT 32/11 A3013 RMK A01 T03190106  RH  027%=      5-min Rain = 0
KFR1 242108Z 13007KT 32/11 A3013 RMK A01 T03220106  RH  026%=      5-min Rain = 0
KFR1 242109Z 12011KT 32/11 A3012 RMK A01 T03230105  RH  026%=      5-min Rain = 0
KFR1 242110Z 12009KT 32/11 A3012 RMK A01 T03240105  RH  026%=      5-min Rain = 0
KFR1 242111Z 13007KT 32/10 A3012 RMK A01 T03240103  RH  026%=      5-min Rain = 0
KFR1 242112Z 16005KT 33/11 A3012 RMK A01 T03250107  RH  026%=      5-min Rain = 0
KFR1 242113Z 17010KT 33/11 A3012 RMK A01 T03290109  RH  026%=      5-min Rain = 0
KFR1 242114Z 17008KT 33/11 A3012 RMK A01 T03310107  RH  026%=      5-min Rain = 0
KFR1 242115Z 17007KT 33/11 A3012 RMK A01 T03290106  RH  026%=      5-min Rain = 0
KFR1 242116Z 16006KT 33/11 A3012 RMK A01 T03270107  RH  026%=      5-min Rain = 0
KFR1 242117Z 14003KT 33/11 A3012 RMK A01 T03260105  RH  026%=      5-min Rain = 0
KFR1 242118Z 19005KT 33/11 A3012 RMK A01 T03270108  RH  026%=      5-min Rain = 0
KFR1 242119Z 21007KT 33/11 A3012 RMK A01 T03280107  RH  026%=      5-min Rain = 0
KFR1 242120Z 19005KT 33/11 A3012 RMK A01 T03300109  RH  026%=      5-min Rain = 0
KFR1 242121Z 21005KT 33/11 A3012 RMK A01 T03310110  RH  026%=      5-min Rain = 0
KFR1 242122Z 23005KT 33/11 A3012 RMK A01 T03320106  RH  025%=      5-min Rain = 0
KFR1 242123Z 25006KT 33/11 A3012 RMK A01 T03310105  RH  025%=      5-min Rain = 0
KFR1 242124Z 25006KT 33/10 A3012 RMK A01 T03310104  RH  025%=      5-min Rain = 0
KFR1 242125Z 25008KT 33/10 A3012 RMK A01 T03300103  RH  025%=      5-min Rain = 0
KFR1 242126Z 24006KT 33/10 A3012 RMK A01 T03290103  RH  025%=      5-min Rain = 0
KFR1 242127Z 22007KT 33/11 A3011 RMK A01 T03300107  RH  026%=      5-min Rain = 0
KFR1 242128Z 20009G14KT 33/11 A3012 RMK A01 T03340114  RH  026%=      5-min Rain = 0
KFR1 242129Z 21012KT 34/11 A3011 RMK A01 T03380111  RH  025%=      5-min Rain = 0
KFR1 242130Z 21013KT 34/11 A3011 RMK A01 T03360107  RH  025%=      5-min Rain = 0
KFR1 242131Z 20011KT 33/11 A3011 RMK A01 T03330108  RH  025%=      5-min Rain = 0
KFR1 242132Z 21009KT 33/11 A3011 RMK A01 T03310106  RH  025%=      5-min Rain = 0
KFR1 242133Z 23008KT 33/11 A3011 RMK A01 T03290105  RH  025%=      5-min Rain = 0
KFR1 242134Z 23005KT 33/10 A3011 RMK A01 T03260104  RH  026%=      5-min Rain = 0
KFR1 242135Z 21007G12KT 32/11 A3011 RMK A01 T03240106  RH  026%=      5-min Rain = 0
KFR1 242136Z 21010KT 33/11 A3011 RMK A01 T03270110  RH  027%=      5-min Rain = 0
KFR1 242137Z 19013KT 33/11 A3011 RMK A01 T03290109  RH  026%=      5-min Rain = 0
KFR1 242138Z 19010KT 33/11 A3011 RMK A01 T03290109  RH  026%=      5-min Rain = 0
KFR1 242139Z 26004KT 33/11 A3011 RMK A01 T03270107  RH  026%=      5-min Rain = 0
KFR1 242140Z 20007G13KT 33/11 A3011 RMK A01 T03260109  RH  026%=      5-min Rain = 0
KFR1 242141Z 16011KT 33/11 A3011 RMK A01 T03290111  RH  026%=      5-min Rain = 0
KFR1 242142Z 17010KT 33/11 A3011 RMK A01 T03310111  RH  026%=      5-min Rain = 0
KFR1 242143Z 18011KT 33/11 A3011 RMK A01 T03320110  RH  026%=      5-min Rain = 0
KFR1 242144Z 19013KT 33/11 A3011 RMK A01 T03310109  RH  026%=      5-min Rain = 0
KFR1 242145Z 20010KT 33/11 A3011 RMK A01 T03300110  RH  026%=      5-min Rain = 0
KFR1 242146Z 18010G16KT 33/11 A3011 RMK A01 T03320111  RH  026%=      5-min Rain = 0
KFR1 242147Z 18012KT 34/11 A3011 RMK A01 T03350110  RH  025%=      5-min Rain = 0
KFR1 242148Z 19009KT 34/11 A3011 RMK A01 T03350107  RH  025%=      5-min Rain = 0
KFR1 242149Z 16005KT 33/11 A3011 RMK A01 T03310107  RH  025%=      5-min Rain = 0
KFR1 242150Z 16007KT 33/11 A3011 RMK A01 T03290107  RH  026%=      5-min Rain = 0
KFR1 242151Z 19008KT 33/11 A3011 RMK A01 T03300109  RH  026%=      5-min Rain = 0
KFR1 242152Z 20008KT 33/11 A3011 RMK A01 T03300110  RH  026%=      5-min Rain = 0
KFR1 242153Z 20007KT 33/11 A3011 RMK A01 T03310108  RH  026%=      5-min Rain = 0
KFR1 242154Z 19009KT 33/11 A3011 RMK A01 T03300108  RH  026%=      5-min Rain = 0
KFR1 242155Z 16005KT 33/11 A3011 RMK A01 T03300110  RH  026%=      5-min Rain = 0
KFR1 242156Z 14007KT 33/11 A3011 RMK A01 T03320107  RH  025%=      5-min Rain = 0
KFR1 242157Z 12005KT 33/10 A301 RMK A01 T03300104  RH  025%=      5-min Rain = 0
KFR1 242158Z 14005KT 33/11 A301 RMK A01 T03280105  RH  026%=      5-min Rain = 0
KFR1 242159Z 15006KT 33/11 A301 RMK A01 T03280108  RH  026%=      5-min Rain = 0
KFR1 242200Z 16008KT 33/11 A301 RMK A01 T03300107  RH  026%=      5-min Rain = 0
KFR1 242201Z 22005KT 33/10 A301 RMK A01 T03290104  RH  025%=      5-min Rain = 0
KFR1 242202Z 19007KT 33/11 A301 RMK A01 T03270105  RH  026%=      5-min Rain = 0
KFR1 242203Z 19007G12KT 33/11 A301 RMK A01 T03290107  RH  026%=      5-min Rain = 0
KFR1 242204Z 19006G11KT 33/11 A301 RMK A01 T03290106  RH  026%=      5-min Rain = 0
KFR1 242205Z 18008KT 33/11 A301 RMK A01 T03280108  RH  026%=      5-min Rain = 0
KFR1 242206Z 16006KT 33/11 A301 RMK A01 T03290107  RH  026%=      5-min Rain = 0
KFR1 242207Z 17007KT 33/11 A301 RMK A01 T03310111  RH  026%=      5-min Rain = 0
KFR1 242208Z 16009KT 34/11 A301 RMK A01 T03350110  RH  025%=      5-min Rain = 0
KFR1 242209Z 16008KT 34/11 A301 RMK A01 T03360108  RH  025%=      5-min Rain = 0
KFR1 242210Z 17009KT 34/11 A301 RMK A01 T03350108  RH  025%=      5-min Rain = 0
KFR1 242211Z 18012KT 33/11 A301 RMK A01 T03340109  RH  025%=      5-min Rain = 0
KFR1 242212Z 18012KT 33/11 A301 RMK A01 T03340107  RH  025%=      5-min Rain = 0
KFR1 242213Z 16009G14KT 33/11 A301 RMK A01 T03330107  RH  025%=      5-min Rain = 0
KFR1 242214Z 17012KT 33/11 A301 RMK A01 T03320109  RH  026%=      5-min Rain = 0
KFR1 242215Z 19010KT 33/11 A301 RMK A01 T03330111  RH  026%=      5-min Rain = 0
KFR1 242216Z 18010KT 34/11 A301 RMK A01 T03350108  RH  025%=      5-min Rain = 0
KFR1 242217Z 15005KT 33/11 A301 RMK A01 T03330106  RH  025%=      5-min Rain = 0
KFR1 242218Z 17011KT 33/11 A301 RMK A01 T03300107  RH  026%=      5-min Rain = 0
KFR1 242219Z 17012KT 33/11 A301 RMK A01 T03290108  RH  026%=      5-min Rain = 0
KFR1 242220Z 17010KT 33/11 A301 RMK A01 T03320109  RH  026%=      5-min Rain = 0
KFR1 242221Z 15007KT 33/11 A301 RMK A01 T03320108  RH  025%=      5-min Rain = 0
KFR1 242222Z 12007KT 33/11 A301 RMK A01 T03320106  RH  025%=      5-min Rain = 0
KFR1 242223Z 14004KT 33/10 A301 RMK A01 T03290103  RH  025%=      5-min Rain = 0
KFR1 242224Z 17004KT 33/11 A301 RMK A01 T03280107  RH  026%=      5-min Rain = 0
KFR1 242225Z 18009KT 33/11 A301 RMK A01 T03310108  RH  026%=      5-min Rain = 0
KFR1 242226Z 18006KT 33/10 A301 RMK A01 T03300104  RH  025%=      5-min Rain = 0
KFR1 242227Z 18004KT 33/11 A301 RMK A01 T03280108  RH  026%=      5-min Rain = 0
KFR1 242228Z 15005KT 33/11 A301 RMK A01 T03290109  RH  026%=      5-min Rain = 0
KFR1 242229Z 15005KT 33/11 A301 RMK A01 T03300108  RH  026%=      5-min Rain = 0
KFR1 242230Z 17008KT 33/11 A301 RMK A01 T03320110  RH  026%=      5-min Rain = 0
KFR1 242231Z 19012KT 34/11 A301 RMK A01 T03350110  RH  025%=      5-min Rain = 0
KFR1 242232Z 18010KT 33/11 A301 RMK A01 T03340109  RH  025%=      5-min Rain = 0
KFR1 242233Z 18012KT 33/11 A301 RMK A01 T03320107  RH  025%=      5-min Rain = 0
KFR1 242234Z 17015KT 33/11 A301 RMK A01 T03300105  RH  025%=      5-min Rain = 0
KFR1 242235Z 17012G20KT 33/11 A301 RMK A01 T03290106  RH  025%=      5-min Rain = 0
KFR1 242236Z 18013KT 33/11 A301 RMK A01 T03290105  RH  025%=      5-min Rain = 0
KFR1 242237Z 19010KT 33/11 A301 RMK A01 T03290106  RH  025%=      5-min Rain = 0
KFR1 242238Z 19012KT 33/11 A301 RMK A01 T03290107  RH  026%=      5-min Rain = 0
KFR1 242239Z 17009KT 33/11 A301 RMK A01 T03300107  RH  026%=      5-min Rain = 0
KFR1 242240Z 17009KT 33/11 A301 RMK A01 T03310105  RH  025%=      5-min Rain = 0
KFR1 242241Z 18010KT 33/10 A301 RMK A01 T03290104  RH  025%=      5-min Rain = 0
KFR1 242242Z 18008KT 33/10 A301 RMK A01 T03270103  RH  025%=      5-min Rain = 0
KFR1 242243Z 19010G16KT 33/11 A301 RMK A01 T03280107  RH  026%=      5-min Rain = 0
KFR1 242244Z 20012KT 33/11 A3009 RMK A01 T03310105  RH  025%=      5-min Rain = 0
KFR1 242245Z 18011KT 33/11 A301 RMK A01 T03310106  RH  025%=      5-min Rain = 0
KFR1 242246Z 18009G14KT 33/10 A301 RMK A01 T03290102  RH  025%=      5-min Rain = 0
KFR1 242247Z 17009G14KT 33/10 A301 RMK A01 T03270104  RH  026%=      5-min Rain = 0
KFR1 242248Z 18010KT 33/11 A301 RMK A01 T03280105  RH  026%=      5-min Rain = 0
KFR1 242249Z 17010KT 33/11 A301 RMK A01 T03290105  RH  025%=      5-min Rain = 0
KFR1 242250Z 17006KT 33/11 A301 RMK A01 T03300106  RH  025%=      5-min Rain = 0
KFR1 242251Z 15005KT 33/10 A3009 RMK A01 T03310104  RH  025%=      5-min Rain = 0
KFR1 242252Z 16004KT 33/11 A3009 RMK A01 T03300106  RH  025%=      5-min Rain = 0
KFR1 242253Z 13005KT 33/10 A3009 RMK A01 T03300104  RH  025%=      5-min Rain = 0
KFR1 242254Z 13004KT 33/10 A3009 RMK A01 T03300104  RH  025%=      5-min Rain = 0
KFR1 242255Z 15006KT 33/11 A3009 RMK A01 T03300106  RH  025%=      5-min Rain = 0
KFR1 242256Z 19008G13KT 33/11 A3009 RMK A01 T03320108  RH  025%=      5-min Rain = 0
KFR1 242257Z 18013KT 33/11 A3009 RMK A01 T03340106  RH  025%=      5-min Rain = 0
KFR1 242258Z 19011G16KT 33/11 A3009 RMK A01 T03330105  RH  025%=      5-min Rain = 0
KFR1 242259Z 20010KT 33/10 A3009 RMK A01 T03310103  RH  025%=      5-min Rain = 0
KFR1 242300Z 18009KT 33/10 A3009 RMK A01 T03290103  RH  025%=      5-min Rain = 0
KFR1 242301Z 18008KT 33/11 A3009 RMK A01 T03280105  RH  025%=      5-min Rain = 0
KFR1 242302Z 18010KT 33/11 A3009 RMK A01 T03290107  RH  026%=      5-min Rain = 0
KFR1 242303Z 17008KT 33/11 A3009 RMK A01 T03310109  RH  026%=      5-min Rain = 0
KFR1 242304Z 15008KT 33/11 A3009 RMK A01 T03330109  RH  025%=      5-min Rain = 0
KFR1 242305Z 16007KT 33/11 A3009 RMK A01 T03330112  RH  026%=      5-min Rain = 0
KFR1 242306Z 17014KT 33/11 A3009 RMK A01 T03340109  RH  025%=      5-min Rain = 0
KFR1 242307Z 18012KT 33/11 A3009 RMK A01 T03340106  RH  025%=      5-min Rain = 0
KFR1 242308Z 18011KT 33/11 A3009 RMK A01 T03320106  RH  025%=      5-min Rain = 0
KFR1 242309Z 18011KT 33/11 A3009 RMK A01 T03320105  RH  025%=      5-min Rain = 0
KFR1 242310Z 19007KT 33/10 A3009 RMK A01 T03290103  RH  025%=      5-min Rain = 0
KFR1 242311Z 20005KT 33/10 A3009 RMK A01 T03260102  RH  025%=      5-min Rain = 0
KFR1 242312Z 20006KT 33/10 A3009 RMK A01 T03250104  RH  026%=      5-min Rain = 0
KFR1 242313Z 20006KT 33/11 A3009 RMK A01 T03270105  RH  026%=      5-min Rain = 0
KFR1 242314Z 18005KT 33/11 A3009 RMK A01 T03290107  RH  026%=      5-min Rain = 0
KFR1 242315Z 17007KT 33/11 A3009 RMK A01 T03310107  RH  025%=      5-min Rain = 0
KFR1 242316Z 16006KT 33/11 A3009 RMK A01 T03320107  RH  025%=      5-min Rain = 0
KFR1 242317Z 14008KT 33/10 A3009 RMK A01 T03330104  RH  025%=      5-min Rain = 0
KFR1 242318Z 14008KT 33/10 A3009 RMK A01 T03310102  RH  025%=      5-min Rain = 0
KFR1 242319Z 13007KT 33/10 A3009 RMK A01 T03280100  RH  025%=      5-min Rain = 0
KFR1 242320Z 15007KT 33/10 A3009 RMK A01 T03270103  RH  025%=      5-min Rain = 0
KFR1 242321Z 17007KT 33/10 A3009 RMK A01 T03280103  RH  025%=      5-min Rain = 0
KFR1 242322Z 16006G11KT 33/11 A3009 RMK A01 T03290106  RH  026%=      5-min Rain = 0
KFR1 242323Z 15012G17KT 33/11 A3009 RMK A01 T03310106  RH  025%=      5-min Rain = 0
KFR1 242324Z 17010KT 33/11 A3009 RMK A01 T03300107  RH  025%=      5-min Rain = 0
KFR1 242325Z 19008KT 33/11 A3009 RMK A01 T03290106  RH  026%=      5-min Rain = 0
KFR1 242326Z 17011G16KT 33/11 A3009 RMK A01 T03290107  RH  026%=      5-min Rain = 0
KFR1 242327Z 17014KT 33/11 A3009 RMK A01 T03280106  RH  026%=      5-min Rain = 0
KFR1 242328Z 16012KT 33/11 A3009 RMK A01 T03280107  RH  026%=      5-min Rain = 0
KFR1 242329Z 15010KT 33/11 A3009 RMK A01 T03280106  RH  026%=      5-min Rain = 0
KFR1 242330Z 15010G15KT 33/11 A3009 RMK A01 T03270106  RH  026%=      5-min Rain = 0
KFR1 242331Z 16008KT 33/11 A3009 RMK A01 T03260106  RH  026%=      5-min Rain = 0
KFR1 242332Z 18010G16KT 33/11 A3009 RMK A01 T03270109  RH  026%=      5-min Rain = 0
KFR1 242333Z 17011KT 33/11 A3009 RMK A01 T03280106  RH  026%=      5-min Rain = 0
KFR1 242334Z 17013KT 33/11 A3009 RMK A01 T03280105  RH  026%=      5-min Rain = 0
KFR1 242335Z 16009KT 33/11 A3009 RMK A01 T03270105  RH  026%=      5-min Rain = 0
KFR1 242336Z 16009G14KT 33/11 A3009 RMK A01 T03260105  RH  026%=      5-min Rain = 0
KFR1 242337Z 16009KT 33/11 A3009 RMK A01 T03260106  RH  026%=      5-min Rain = 0
KFR1 242338Z 16008KT 33/11 A3009 RMK A01 T03270105  RH  026%=      5-min Rain = 0
KFR1 242339Z 17007KT 33/11 A3009 RMK A01 T03270105  RH  026%=      5-min Rain = 0
KFR1 242340Z 17009KT 33/11 A3009 RMK A01 T03270107  RH  026%=      5-min Rain = 0
KFR1 242341Z 16008KT 33/11 A3009 RMK A01 T03280107  RH  026%=      5-min Rain = 0
KFR1 242342Z 17011KT 33/11 A3009 RMK A01 T03290107  RH  026%=      5-min Rain = 0
KFR1 242343Z 17011KT 33/11 A3009 RMK A01 T03290105  RH  025%=      5-min Rain = 0
KFR1 242344Z 18011KT 33/10 A3009 RMK A01 T03270104  RH  026%=      5-min Rain = 0
KFR1 242345Z 17009KT 33/11 A3008 RMK A01 T03260105  RH  026%=      5-min Rain = 0
KFR1 242346Z 17007KT 33/11 A3009 RMK A01 T03260107  RH  026%=      5-min Rain = 0
KFR1 242347Z 16007G13KT 33/11 A3009 RMK A01 T03270107  RH  026%=      5-min Rain = 0
KFR1 242348Z 18009KT 33/11 A3008 RMK A01 T03290108  RH  026%=      5-min Rain = 0
KFR1 242349Z 18011KT 33/11 A3008 RMK A01 T03300106  RH  025%=      5-min Rain = 0
KFR1 242350Z 17009KT 33/11 A3009 RMK A01 T03280105  RH  026%=      5-min Rain = 0
KFR1 242351Z 19008KT 33/11 A3009 RMK A01 T03270107  RH  026%=      5-min Rain = 0
KFR1 242352Z 17008KT 33/11 A3008 RMK A01 T03270107  RH  026%=      5-min Rain = 0
KFR1 242353Z 18012KT 33/11 A3009 RMK A01 T03280107  RH  026%=      5-min Rain = 0
KFR1 242354Z 17012KT 33/11 A3008 RMK A01 T03280105  RH  025%=      5-min Rain = 0
KFR1 242355Z 18014KT 33/11 A3008 RMK A01 T03280106  RH  026%=      5-min Rain = 0
KFR1 242356Z 18014KT 33/11 A3008 RMK A01 T03270107  RH  026%=      5-min Rain = 0
KFR1 242357Z 18013KT 33/11 A3008 RMK A01 T03260107  RH  026%=      5-min Rain = 0
KFR1 242358Z 18011KT 33/11 A3008 RMK A01 T03250105  RH  026%=      5-min Rain = 0
KFR1 242359Z 17009KT 32/11 A3009 RMK A01 T03240106  RH  026%=      5-min Rain = 0
KFR1 250000Z 19006KT 32/11 A3008 RMK A01 T03230106  RH  026%=      5-min Rain = 0
KFR1 250001Z 18006KT 32/11 A3008 RMK A01 T03240109  RH  027%=      5-min Rain = 0
KFR1 250002Z 18010KT 33/11 A3009 RMK A01 T03260110  RH  027%=      5-min Rain = 0
KFR1 250003Z 18009KT 33/11 A3008 RMK A01 T03270109  RH  026%=      5-min Rain = 0
KFR1 250004Z 17010KT 33/11 A3009 RMK A01 T03260108  RH  026%=      5-min Rain = 0
KFR1 250005Z 15009G14KT 33/11 A3009 RMK A01 T03270109  RH  026%=      5-min Rain = 0
KFR1 250006Z 15010KT 33/11 A3009 RMK A01 T03260107  RH  026%=      5-min Rain = 0
KFR1 250007Z 16010KT 33/11 A3009 RMK A01 T03250107  RH  026%=      5-min Rain = 0
KFR1 250008Z 16011G17KT 32/11 A3009 RMK A01 T03240107  RH  026%=      5-min Rain = 0
KFR1 250009Z 18012KT 32/11 A3009 RMK A01 T03230107  RH  026%=      5-min Rain = 0
KFR1 250010Z 18011KT 32/11 A3008 RMK A01 T03220106  RH  027%=      5-min Rain = 0
KFR1 250011Z 17010KT 32/11 A3009 RMK A01 T03210106  RH  027%=      5-min Rain = 0
KFR1 250012Z 17012KT 32/11 A3009 RMK A01 T03210107  RH  027%=      5-min Rain = 0
KFR1 250013Z 17008KT 32/11 A3009 RMK A01 T03210107  RH  027%=      5-min Rain = 0
KFR1 250014Z 16008KT 32/11 A3009 RMK A01 T03210108  RH  027%=      5-min Rain = 0
KFR1 250015Z 16009KT 32/11 A3009 RMK A01 T03220106  RH  027%=      5-min Rain = 0
KFR1 250016Z 16010KT 32/11 A3009 RMK A01 T03220107  RH  027%=      5-min Rain = 0
KFR1 250017Z 16009G14KT 32/11 A3009 RMK A01 T03220107  RH  027%=      5-min Rain = 0
KFR1 250018Z 15010KT 32/11 A3009 RMK A01 T03210107  RH  027%=      5-min Rain = 0
KFR1 250019Z 16009KT 32/11 A3009 RMK A01 T03220107  RH  027%=      5-min Rain = 0
KFR1 250020Z 16008KT 32/11 A3009 RMK A01 T03220108  RH  027%=      5-min Rain = 0
KFR1 250021Z 16007KT 32/11 A3009 RMK A01 T03220111  RH  027%=      5-min Rain = 0
KFR1 250022Z 16008KT 32/11 A3009 RMK A01 T03230111  RH  027%=      5-min Rain = 0
KFR1 250023Z 15009G14KT 32/11 A3009 RMK A01 T03240110  RH  027%=      5-min Rain = 0
KFR1 250024Z 16009G14KT 32/11 A3009 RMK A01 T03230108  RH  027%=      5-min Rain = 0
KFR1 250025Z 16009G14KT 32/11 A3009 RMK A01 T03220108  RH  027%=      5-min Rain = 0
KFR1 250026Z 14008G13KT 32/11 A3009 RMK A01 T03210108  RH  027%=      5-min Rain = 0
KFR1 250027Z 14011G17KT 32/11 A3009 RMK A01 T03200108  RH  027%=      5-min Rain = 0
KFR1 250028Z 16011KT 32/11 A3009 RMK A01 T03200107  RH  027%=      5-min Rain = 0
KFR1 250029Z 16011KT 32/11 A3009 RMK A01 T03190108  RH  027%=      5-min Rain = 0
KFR1 250030Z 16014KT 32/11 A3008 RMK A01 T03190107  RH  027%=      5-min Rain = 0
KFR1 250031Z 17013KT 32/11 A3009 RMK A01 T03190106  RH  027%=      5-min Rain = 0
KFR1 250032Z 17010KT 32/11 A3009 RMK A01 T03190108  RH  027%=      5-min Rain = 0
KFR1 250033Z 16008KT 32/11 A3009 RMK A01 T03200108  RH  027%=      5-min Rain = 0
KFR1 250034Z 14008KT 32/11 A3009 RMK A01 T03200108  RH  027%=      5-min Rain = 0
KFR1 250035Z 15008G13KT 32/11 A3009 RMK A01 T03200108  RH  027%=      5-min Rain = 0
KFR1 250036Z 15007KT 32/11 A3009 RMK A01 T03190108  RH  027%=      5-min Rain = 0
KFR1 250037Z 13009KT 32/11 A3009 RMK A01 T03190109  RH  028%=      5-min Rain = 0
KFR1 250038Z 14011KT 32/11 A3009 RMK A01 T03170108  RH  028%=      5-min Rain = 0
KFR1 250039Z 13011KT 32/11 A3009 RMK A01 T03160108  RH  028%=      5-min Rain = 0
KFR1 250040Z 15009KT 32/11 A3009 RMK A01 T03150109  RH  028%=      5-min Rain = 0
KFR1 250041Z 16010KT 32/11 A3009 RMK A01 T03150110  RH  028%=      5-min Rain = 0
KFR1 250042Z 17011KT 32/11 A3009 RMK A01 T03160108  RH  028%=      5-min Rain = 0
KFR1 250043Z 16009KT 32/11 A3009 RMK A01 T03160107  RH  028%=      5-min Rain = 0
KFR1 250044Z 16008KT 32/11 A3009 RMK A01 T03160108  RH  028%=      5-min Rain = 0
KFR1 250045Z 15008KT 32/11 A3009 RMK A01 T03170107  RH  028%=      5-min Rain = 0
KFR1 250046Z 15005KT 32/11 A3009 RMK A01 T03170107  RH  028%=      5-min Rain = 0
KFR1 250047Z 16006KT 32/11 A3009 RMK A01 T03170110  RH  028%=      5-min Rain = 0
KFR1 250048Z 15010KT 32/11 A3009 RMK A01 T03170110  RH  028%=      5-min Rain = 0
KFR1 250049Z 15009KT 32/11 A3009 RMK A01 T03170108  RH  028%=      5-min Rain = 0
KFR1 250050Z 16011KT 32/11 A3009 RMK A01 T03160107  RH  028%=      5-min Rain = 0
KFR1 250051Z 15010KT 32/11 A3009 RMK A01 T03150107  RH  028%=      5-min Rain = 0
KFR1 250052Z 15012KT 32/11 A3009 RMK A01 T03150107  RH  028%=      5-min Rain = 0
KFR1 250053Z 16013KT 31/11 A3009 RMK A01 T03140108  RH  028%=      5-min Rain = 0
KFR1 250054Z 15008KT 31/11 A3009 RMK A01 T03130109  RH  028%=      5-min Rain = 0
KFR1 250055Z 15011KT 31/11 A3009 RMK A01 T03130109  RH  029%=      5-min Rain = 0
KFR1 250056Z 16011KT 31/11 A3009 RMK A01 T03120110  RH  029%=      5-min Rain = 0
KFR1 250057Z 16012G17KT 31/11 A3009 RMK A01 T03110109  RH  029%=      5-min Rain = 0
KFR1 250058Z 15009KT 31/11 A3009 RMK A01 T03110109  RH  029%=      5-min Rain = 0
KFR1 250059Z 15009KT 31/11 A3009 RMK A01 T03100109  RH  029%=      5-min Rain = 0
KFR1 250100Z 15009KT 31/11 A3009 RMK A01 T03100110  RH  029%=      5-min Rain = 0
KFR1 250101Z 15009KT 31/11 A3009 RMK A01 T03100110  RH  029%=      5-min Rain = 0
KFR1 250102Z 14009G14KT 31/11 A3009 RMK A01 T03100110  RH  029%=      5-min Rain = 0
KFR1 250103Z 15010KT 31/11 A3009 RMK A01 T03090109  RH  029%=      5-min Rain = 0
KFR1 250104Z 15009KT 31/11 A3009 RMK A01 T03090109  RH  029%=      5-min Rain = 0
KFR1 250105Z 15009KT 31/11 A3009 RMK A01 T03090110  RH  029%=      5-min Rain = 0
KFR1 250106Z 16008G15KT 31/11 A3009 RMK A01 T03090110  RH  029%=      5-min Rain = 0
KFR1 250107Z 16012G17KT 31/11 A3009 RMK A01 T03090110  RH  029%=      5-min Rain = 0
KFR1 250108Z 15008KT 31/11 A3009 RMK A01 T03090110  RH  029%=      5-min Rain = 0
KFR1 250109Z 16011KT 31/11 A3009 RMK A01 T03080110  RH  029%=      5-min Rain = 0
KFR1 250110Z 15013KT 31/11 A3009 RMK A01 T03080110  RH  030%=      5-min Rain = 0
KFR1 250111Z 16011KT 31/11 A3009 RMK A01 T03070109  RH  030%=      5-min Rain = 0
KFR1 250112Z 17009KT 31/11 A3009 RMK A01 T03060109  RH  030%=      5-min Rain = 0
KFR1 250113Z 16011KT 31/11 A3009 RMK A01 T03060110  RH  030%=      5-min Rain = 0
KFR1 250114Z 15009KT 31/11 A3009 RMK A01 T03060110  RH  030%=      5-min Rain = 0
KFR1 250115Z 16012KT 31/11 A3009 RMK A01 T03050110  RH  030%=      5-min Rain = 0
KFR1 250116Z 15009G15KT 31/11 A3009 RMK A01 T03050110  RH  030%=      5-min Rain = 0
KFR1 250117Z 14010KT 31/11 A3009 RMK A01 T03050111  RH  030%=      5-min Rain = 0
KFR1 250118Z 15009G15KT 30/11 A3009 RMK A01 T03040112  RH  031%=      5-min Rain = 0
KFR1 250119Z 15009G14KT 30/11 A301 RMK A01 T03020112  RH  031%=      5-min Rain = 0
KFR1 250120Z 15012KT 30/11 A3009 RMK A01 T03010112  RH  031%=      5-min Rain = 0
KFR1 250121Z 14012KT 30/11 A3009 RMK A01 T03000112  RH  032%=      5-min Rain = 0
KFR1 250122Z 14011G16KT 30/11 A301 RMK A01 T02980112  RH  032%=      5-min Rain = 0
KFR1 250123Z 14014G20KT 30/11 A301 RMK A01 T02980113  RH  032%=      5-min Rain = 0
KFR1 250124Z 14013G18KT 30/11 A3009 RMK A01 T02960112  RH  032%=      5-min Rain = 0
KFR1 250125Z 14011G17KT 30/11 A301 RMK A01 T02950113  RH  032%=      5-min Rain = 0
KFR1 250126Z 14013G19KT 30/11 A301 RMK A01 T02950113  RH  032%=      5-min Rain = 0
KFR1 250127Z 14012G17KT 29/11 A301 RMK A01 T02940113  RH  033%=      5-min Rain = 0
KFR1 250128Z 14010KT 29/11 A301 RMK A01 T02940113  RH  033%=      5-min Rain = 0
KFR1 250129Z 15010G16KT 29/11 A301 RMK A01 T02930113  RH  033%=      5-min Rain = 0
KFR1 250130Z 14010G15KT 29/11 A301 RMK A01 T02920113  RH  033%=      5-min Rain = 0
KFR1 250131Z 13011G16KT 29/11 A301 RMK A01 T02920113  RH  033%=      5-min Rain = 0
KFR1 250132Z 14010G15KT 29/11 A301 RMK A01 T02910113  RH  033%=      5-min Rain = 0
KFR1 250133Z 14014KT 29/11 A301 RMK A01 T02910112  RH  033%=      5-min Rain = 0
KFR1 250134Z 14013KT 29/11 A301 RMK A01 T02910113  RH  033%=      5-min Rain = 0
KFR1 250135Z 13012G18KT 29/11 A301 RMK A01 T02900112  RH  033%=      5-min Rain = 0
KFR1 250136Z 14011KT 29/11 A301 RMK A01 T02900112  RH  033%=      5-min Rain = 0
KFR1 250137Z 14010KT 29/11 A301 RMK A01 T02890113  RH  033%=      5-min Rain = 0
KFR1 250138Z 13014G19KT 29/11 A301 RMK A01 T02880112  RH  034%=      5-min Rain = 0
KFR1 250139Z 14011KT 29/11 A301 RMK A01 T02880112  RH  034%=      5-min Rain = 0
KFR1 250140Z 13011KT 29/11 A301 RMK A01 T02880112  RH  034%=      5-min Rain = 0
KFR1 250141Z 13013KT 29/11 A301 RMK A01 T02870112  RH  034%=      5-min Rain = 0
KFR1 250142Z 14012KT 29/11 A301 RMK A01 T02870113  RH  034%=      5-min Rain = 0
KFR1 250143Z 14010G15KT 29/11 A301 RMK A01 T02870112  RH  034%=      5-min Rain = 0
KFR1 250144Z 14010KT 29/11 A301 RMK A01 T02860112  RH  034%=      5-min Rain = 0
KFR1 250145Z 14010G15KT 29/11 A301 RMK A01 T02860113  RH  034%=      5-min Rain = 0
KFR1 250146Z 14014G19KT 29/11 A301 RMK A01 T02850113  RH  034%=      5-min Rain = 0
KFR1 250147Z 14011KT 29/11 A301 RMK A01 T02850112  RH  034%=      5-min Rain = 0
KFR1 250148Z 14009KT 29/11 A301 RMK A01 T02850112  RH  034%=      5-min Rain = 0
KFR1 250149Z 13010G15KT 28/11 A301 RMK A01 T02840113  RH  034%=      5-min Rain = 0
KFR1 250150Z 13010G15KT 28/11 A301 RMK A01 T02840113  RH  035%=      5-min Rain = 0
KFR1 250151Z 13011KT 28/11 A301 RMK A01 T02830113  RH  035%=      5-min Rain = 0
KFR1 250152Z 14012KT 28/11 A301 RMK A01 T02830113  RH  035%=      5-min Rain = 0
KFR1 250153Z 14011G16KT 28/11 A301 RMK A01 T02830113  RH  035%=      5-min Rain = 0
KFR1 250154Z 14013G18KT 28/11 A301 RMK A01 T02820113  RH  035%=      5-min Rain = 0
KFR1 250155Z 14011G21KT 28/11 A301 RMK A01 T02820113  RH  035%=      5-min Rain = 0
KFR1 250156Z 14013G19KT 28/11 A301 RMK A01 T02810113  RH  035%=      5-min Rain = 0
KFR1 250157Z 14012G19KT 28/11 A3009 RMK A01 T02810113  RH  035%=      5-min Rain = 0
KFR1 250158Z 14011G17KT 28/11 A3009 RMK A01 T02800113  RH  035%=      5-min Rain = 0
KFR1 250159Z 14010KT 28/11 A3009 RMK A01 T02800113  RH  035%=      5-min Rain = 0
KFR1 250200Z 14012G19KT 28/11 A3009 RMK A01 T02790112  RH  035%=      5-min Rain = 0
KFR1 250201Z 13010KT 28/11 A3009 RMK A01 T02790112  RH  035%=      5-min Rain = 0
KFR1 250202Z 14009G14KT 28/11 A3009 RMK A01 T02780112  RH  036%=      5-min Rain = 0
KFR1 250203Z 14010KT 28/11 A3009 RMK A01 T02780112  RH  036%=      5-min Rain = 0
KFR1 250204Z 14012G18KT 28/11 A3009 RMK A01 T02770112  RH  036%=      5-min Rain = 0
KFR1 250205Z 14012G17KT 28/11 A3009 RMK A01 T02770112  RH  036%=      5-min Rain = 0
KFR1 250206Z 14014G20KT 28/11 A3009 RMK A01 T02770112  RH  036%=      5-min Rain = 0
KFR1 250207Z 14011KT 28/11 A3009 RMK A01 T02770112  RH  036%=      5-min Rain = 0
KFR1 250208Z 14012KT 28/11 A3009 RMK A01 T02770112  RH  036%=      5-min Rain = 0
KFR1 250209Z 14011G16KT 28/11 A3009 RMK A01 T02760112  RH  036%=      5-min Rain = 0
KFR1 250210Z 14011KT 28/11 A3009 RMK A01 T02760112  RH  036%=      5-min Rain = 0
KFR1 250211Z 14013G19KT 28/11 A3009 RMK A01 T02750111  RH  036%=      5-min Rain = 0
KFR1 250212Z 15011KT 28/11 A3009 RMK A01 T02750111  RH  036%=      5-min Rain = 0
KFR1 250213Z 14009KT 28/11 A3009 RMK A01 T02750112  RH  036%=      5-min Rain = 0
KFR1 250214Z 14010G15KT 27/11 A3009 RMK A01 T02740112  RH  036%=      5-min Rain = 0
KFR1 250215Z 14012KT 27/11 A3009 RMK A01 T02740112  RH  036%=      5-min Rain = 0
KFR1 250216Z 14011KT 27/11 A3009 RMK A01 T02740112  RH  036%=      5-min Rain = 0
KFR1 250217Z 15010KT 27/11 A3009 RMK A01 T02730112  RH  036%=      5-min Rain = 0
KFR1 250218Z 14011G16KT 27/11 A3009 RMK A01 T02730112  RH  037%=      5-min Rain = 0
KFR1 250219Z 14012G17KT 27/11 A3009 RMK A01 T02720111  RH  037%=      5-min Rain = 0
KFR1 250220Z 14012KT 27/11 A3009 RMK A01 T02720112  RH  037%=      5-min Rain = 0
KFR1 250221Z 15011G16KT 27/11 A3009 RMK A01 T02720111  RH  037%=      5-min Rain = 0
KFR1 250222Z 14008KT 27/11 A3009 RMK A01 T02720111  RH  037%=      5-min Rain = 0
KFR1 250223Z 15013G18KT 27/11 A3009 RMK A01 T02710112  RH  037%=      5-min Rain = 0
KFR1 250224Z 14011G17KT 27/11 A3009 RMK A01 T02710111  RH  037%=      5-min Rain = 0
KFR1 250225Z 14012KT 27/11 A3009 RMK A01 T02700111  RH  037%=      5-min Rain = 0
KFR1 250226Z 14013G19KT 27/11 A3009 RMK A01 T02710112  RH  037%=      5-min Rain = 0
KFR1 250227Z 14011G17KT 27/11 A3009 RMK A01 T02700111  RH  037%=      5-min Rain = 0
KFR1 250228Z 14013KT 27/11 A3009 RMK A01 T02700111  RH  037%=      5-min Rain = 0
KFR1 250229Z 15013KT 27/11 A3009 RMK A01 T02700112  RH  037%=      5-min Rain = 0
KFR1 250230Z 14011KT 27/11 A301 RMK A01 T02700112  RH  037%=      5-min Rain = 0
KFR1 250231Z 14011G16KT 27/11 A301 RMK A01 T02690112  RH  037%=      5-min Rain = 0
KFR1 250232Z 15012G17KT 27/11 A301 RMK A01 T02690112  RH  037%=      5-min Rain = 0
KFR1 250233Z 14011G20KT 27/11 A301 RMK A01 T02680111  RH  038%=      5-min Rain = 0
KFR1 250234Z 15013G18KT 27/11 A301 RMK A01 T02680112  RH  038%=      5-min Rain = 0
KFR1 250235Z 14011G18KT 27/11 A301 RMK A01 T02680111  RH  038%=      5-min Rain = 0
KFR1 250236Z 14009KT 27/11 A301 RMK A01 T02680112  RH  038%=      5-min Rain = 0
KFR1 250237Z 14010G15KT 27/11 A301 RMK A01 T02670111  RH  038%=      5-min Rain = 0
KFR1 250238Z 15012G18KT 27/11 A301 RMK A01 T02660112  RH  038%=      5-min Rain = 0
KFR1 250239Z 14011KT 27/11 A301 RMK A01 T02660112  RH  038%=      5-min Rain = 0
KFR1 250240Z 15011KT 27/11 A301 RMK A01 T02670112  RH  038%=      5-min Rain = 0
KFR1 250241Z 15009G15KT 27/11 A301 RMK A01 T02660112  RH  038%=      5-min Rain = 0
KFR1 250242Z 15011KT 27/11 A301 RMK A01 T02660112  RH  038%=      5-min Rain = 0
KFR1 250243Z 15010G18KT 27/11 A301 RMK A01 T02650112  RH  038%=      5-min Rain = 0
KFR1 250244Z 15010KT 27/11 A301 RMK A01 T02650112  RH  038%=      5-min Rain = 0
KFR1 250245Z 15012G17KT 27/11 A301 RMK A01 T02650112  RH  038%=      5-min Rain = 0
KFR1 250246Z 15011G17KT 27/11 A301 RMK A01 T02650112  RH  038%=      5-min Rain = 0
KFR1 250247Z 15012KT 26/11 A301 RMK A01 T02640112  RH  039%=      5-min Rain = 0
KFR1 250248Z 15012KT 26/11 A301 RMK A01 T02640112  RH  039%=      5-min Rain = 0
KFR1 250249Z 14011G17KT 26/11 A301 RMK A01 T02640112  RH  039%=      5-min Rain = 0
KFR1 250250Z 14011G16KT 26/11 A301 RMK A01 T02640112  RH  039%=      5-min Rain = 0
KFR1 250251Z 14010G15KT 26/11 A301 RMK A01 T02630112  RH  039%=      5-min Rain = 0
KFR1 250252Z 14009KT 26/11 A301 RMK A01 T02630112  RH  039%=      5-min Rain = 0
KFR1 250253Z 14012KT 26/11 A301 RMK A01 T02620112  RH  039%=      5-min Rain = 0
KFR1 250254Z 14012G17KT 26/11 A301 RMK A01 T02620112  RH  039%=      5-min Rain = 0
KFR1 250255Z 14010G15KT 26/11 A301 RMK A01 T02620112  RH  039%=      5-min Rain = 0
KFR1 250256Z 15010G17KT 26/11 A3011 RMK A01 T02620112  RH  039%=      5-min Rain = 0
KFR1 250257Z 16009G14KT 26/11 A3011 RMK A01 T02610112  RH  039%=      5-min Rain = 0
KFR1 250258Z 15010KT 26/11 A3011 RMK A01 T02610112  RH  039%=      5-min Rain = 0
KFR1 250259Z 15009G16KT 26/11 A3011 RMK A01 T02610112  RH  039%=      5-min Rain = 0
KFR1 250300Z 15010KT 26/11 A3011 RMK A01 T02600112  RH  040%=      5-min Rain = 0
KFR1 250301Z 15010KT 26/11 A3011 RMK A01 T02600112  RH  040%=      5-min Rain = 0
KFR1 250302Z 15011KT 26/11 A3011 RMK A01 T02600112  RH  040%=      5-min Rain = 0
KFR1 250303Z 14011G17KT 26/11 A3011 RMK A01 T02600112  RH  040%=      5-min Rain = 0
KFR1 250304Z 14011KT 26/11 A3011 RMK A01 T02590112  RH  040%=      5-min Rain = 0
KFR1 250305Z 15010G16KT 26/11 A3011 RMK A01 T02600112  RH  040%=      5-min Rain = 0
KFR1 250306Z 15011G17KT 26/11 A3011 RMK A01 T02590112  RH  040%=      5-min Rain = 0
KFR1 250307Z 15011G16KT 26/11 A3011 RMK A01 T02590112  RH  040%=      5-min Rain = 0
KFR1 250308Z 15011KT 26/11 A3011 RMK A01 T02590112  RH  040%=      5-min Rain = 0
KFR1 250309Z 16009KT 26/11 A3011 RMK A01 T02590112  RH  040%=      5-min Rain = 0
KFR1 250310Z 15009KT 26/11 A3011 RMK A01 T02580112  RH  040%=      5-min Rain = 0
KFR1 250311Z 15012KT 26/11 A3011 RMK A01 T02580112  RH  040%=      5-min Rain = 0
KFR1 250312Z 16012KT 26/11 A3011 RMK A01 T02570112  RH  040%=      5-min Rain = 0
KFR1 250313Z 15010G15KT 26/11 A3011 RMK A01 T02570112  RH  040%=      5-min Rain = 0
KFR1 250314Z 16009KT 26/11 A3011 RMK A01 T02570112  RH  040%=      5-min Rain = 0
KFR1 250315Z 15010G15KT 26/11 A3011 RMK A01 T02570112  RH  040%=      5-min Rain = 0
KFR1 250316Z 15010KT 26/11 A3011 RMK A01 T02570112  RH  040%=      5-min Rain = 0
KFR1 250317Z 15010KT 26/11 A3011 RMK A01 T02560112  RH  040%=      5-min Rain = 0
KFR1 250318Z 15010G15KT 26/11 A3011 RMK A01 T02560111  RH  040%=      5-min Rain = 0
KFR1 250319Z 15011KT 26/11 A3011 RMK A01 T02560111  RH  040%=      5-min Rain = 0
KFR1 250320Z 15009G16KT 26/11 A3011 RMK A01 T02560111  RH  040%=      5-min Rain = 0
KFR1 250321Z 16010KT 26/11 A3011 RMK A01 T02560111  RH  040%=      5-min Rain = 0
KFR1 250322Z 15014G21KT 26/11 A3011 RMK A01 T02550111  RH  040%=      5-min Rain = 0
KFR1 250323Z 15012G18KT 26/11 A3011 RMK A01 T02560111  RH  040%=      5-min Rain = 0
KFR1 250324Z 15010KT 26/11 A3011 RMK A01 T02560111  RH  040%=      5-min Rain = 0
KFR1 250325Z 15013G18KT 26/11 A3011 RMK A01 T02550111  RH  040%=      5-min Rain = 0
KFR1 250326Z 15012KT 26/11 A3011 RMK A01 T02550111  RH  040%=      5-min Rain = 0
KFR1 250327Z 15009KT 26/11 A3011 RMK A01 T02550111  RH  040%=      5-min Rain = 0
KFR1 250328Z 15009G14KT 26/11 A3011 RMK A01 T02550111  RH  040%=      5-min Rain = 0
KFR1 250329Z 16010G15KT 25/11 A3011 RMK A01 T02540110  RH  040%=      5-min Rain = 0
KFR1 250330Z 15011G16KT 25/11 A3011 RMK A01 T02540110  RH  040%=      5-min Rain = 0
KFR1 250331Z 15012G18KT 25/11 A3012 RMK A01 T02540110  RH  041%=      5-min Rain = 0
KFR1 250332Z 14009G15KT 25/11 A3012 RMK A01 T02540110  RH  041%=      5-min Rain = 0
KFR1 250333Z 15011G16KT 25/11 A3012 RMK A01 T02530110  RH  041%=      5-min Rain = 0
KFR1 250334Z 16010G15KT 25/11 A3012 RMK A01 T02530110  RH  041%=      5-min Rain = 0
KFR1 250335Z 15012KT 25/11 A3012 RMK A01 T02530109  RH  041%=      5-min Rain = 0
KFR1 250336Z 15012KT 25/11 A3012 RMK A01 T02530110  RH  041%=      5-min Rain = 0
KFR1 250337Z 15010KT 25/11 A3012 RMK A01 T02530109  RH  041%=      5-min Rain = 0
KFR1 250338Z 16011G16KT 25/11 A3012 RMK A01 T02520109  RH  041%=      5-min Rain = 0
KFR1 250339Z 16012G18KT 25/11 A3012 RMK A01 T02520109  RH  041%=      5-min Rain = 0
KFR1 250340Z 16013KT 25/11 A3012 RMK A01 T02520109  RH  041%=      5-min Rain = 0
KFR1 250341Z 15013G18KT 25/11 A3012 RMK A01 T02510108  RH  041%=      5-min Rain = 0
KFR1 250342Z 16010KT 25/11 A3012 RMK A01 T02510108  RH  041%=      5-min Rain = 0
KFR1 250343Z 15011G17KT 25/11 A3012 RMK A01 T02510108  RH  041%=      5-min Rain = 0
KFR1 250344Z 16012G18KT 25/11 A3012 RMK A01 T02510108  RH  041%=      5-min Rain = 0
KFR1 250345Z 15010KT 25/11 A3012 RMK A01 T02510108  RH  041%=      5-min Rain = 0
KFR1 250346Z 15012G17KT 25/11 A3012 RMK A01 T02500107  RH  041%=      5-min Rain = 0
KFR1 250347Z 16014G20KT 25/11 A3012 RMK A01 T02500107  RH  040%=      5-min Rain = 0
KFR1 250348Z 15013KT 25/11 A3012 RMK A01 T02500107  RH  040%=      5-min Rain = 0
KFR1 250349Z 15012G18KT 25/11 A3012 RMK A01 T02500107  RH  040%=      5-min Rain = 0
KFR1 250350Z 15011KT 25/11 A3012 RMK A01 T02500106  RH  040%=      5-min Rain = 0
KFR1 250351Z 16010G19KT 25/11 A3012 RMK A01 T02500106  RH  040%=      5-min Rain = 0
KFR1 250352Z 16013KT 25/11 A3012 RMK A01 T02490106  RH  040%=      5-min Rain = 0
KFR1 250353Z 15013G18KT 25/11 A3012 RMK A01 T02500106  RH  040%=      5-min Rain = 0
KFR1 250354Z 16014G19KT 25/11 A3012 RMK A01 T02500106  RH  040%=      5-min Rain = 0
KFR1 250355Z 16015KT 25/11 A3012 RMK A01 T02490105  RH  040%=      5-min Rain = 0
KFR1 250356Z 16012KT 25/11 A3012 RMK A01 T02490105  RH  040%=      5-min Rain = 0
KFR1 250357Z 15012KT 25/11 A3012 RMK A01 T02490105  RH  040%=      5-min Rain = 0
KFR1 250358Z 16011G18KT 25/11 A3012 RMK A01 T02480105  RH  040%=      5-min Rain = 0
KFR1 250359Z 15013G18KT 25/11 A3012 RMK A01 T02480105  RH  040%=      5-min Rain = 0
KFR1 250400Z 15012G17KT 25/11 A3012 RMK A01 T02480105  RH  040%=      5-min Rain = 0
KFR1 250401Z 15012G17KT 25/10 A3012 RMK A01 T02480104  RH  040%=      5-min Rain = 0
KFR1 250402Z 16011KT 25/10 A3012 RMK A01 T02480104  RH  040%=      5-min Rain = 0
KFR1 250403Z 15012KT 25/10 A3012 RMK A01 T02470104  RH  040%=      5-min Rain = 0
KFR1 250404Z 15012KT 25/10 A3012 RMK A01 T02470104  RH  040%=      5-min Rain = 0
KFR1 250405Z 16011G18KT 25/10 A3012 RMK A01 T02470103  RH  040%=      5-min Rain = 0
KFR1 250406Z 15011KT 25/10 A3013 RMK A01 T02470103  RH  040%=      5-min Rain = 0
KFR1 250407Z 16012G17KT 25/10 A3013 RMK A01 T02470103  RH  040%=      5-min Rain = 0
KFR1 250408Z 16012G17KT 25/10 A3013 RMK A01 T02470103  RH  040%=      5-min Rain = 0
KFR1 250409Z 16011KT 25/10 A3013 RMK A01 T02460103  RH  040%=      5-min Rain = 0
KFR1 250410Z 16009G15KT 25/10 A3013 RMK A01 T02460103  RH  040%=      5-min Rain = 0
KFR1 250411Z 15014G19KT 25/10 A3013 RMK A01 T02450102  RH  040%=      5-min Rain = 0
KFR1 250412Z 16010KT 25/10 A3013 RMK A01 T02450102  RH  040%=      5-min Rain = 0
KFR1 250413Z 16011KT 25/10 A3013 RMK A01 T02450102  RH  040%=      5-min Rain = 0
KFR1 250414Z 16012G18KT 25/10 A3013 RMK A01 T02450102  RH  041%=      5-min Rain = 0
KFR1 250415Z 15010G15KT 25/10 A3013 RMK A01 T02450102  RH  041%=      5-min Rain = 0
KFR1 250416Z 15011KT 24/10 A3013 RMK A01 T02440101  RH  041%=      5-min Rain = 0
KFR1 250417Z 16011KT 24/10 A3013 RMK A01 T02440101  RH  041%=      5-min Rain = 0
KFR1 250418Z 15012KT 24/10 A3013 RMK A01 T02440101  RH  041%=      5-min Rain = 0
KFR1 250419Z 15011G16KT 24/10 A3013 RMK A01 T02430101  RH  041%=      5-min Rain = 0
KFR1 250420Z 15011KT 24/10 A3013 RMK A01 T02430101  RH  041%=      5-min Rain = 0
KFR1 250421Z 16012KT 24/10 A3013 RMK A01 T02420100  RH  041%=      5-min Rain = 0
KFR1 250422Z 15014KT 24/10 A3013 RMK A01 T02430100  RH  040%=      5-min Rain = 0
KFR1 250423Z 15010KT 24/10 A3013 RMK A01 T02430099  RH  040%=      5-min Rain = 0
KFR1 250424Z 15012KT 24/10 A3013 RMK A01 T02430099  RH  040%=      5-min Rain = 0
KFR1 250425Z 15012G18KT 24/10 A3012 RMK A01 T02430099  RH  040%=      5-min Rain = 0
KFR1 250426Z 16010KT 24/10 A3012 RMK A01 T02430099  RH  040%=      5-min Rain = 0
KFR1 250427Z 16013KT 24/10 A3012 RMK A01 T02420099  RH  040%=      5-min Rain = 0
KFR1 250428Z 16012G17KT 24/10 A3012 RMK A01 T02420098  RH  040%=      5-min Rain = 0
KFR1 250429Z 15012KT 24/10 A3013 RMK A01 T02420098  RH  040%=      5-min Rain = 0
KFR1 250430Z 16010G15KT 24/10 A3013 RMK A01 T02410098  RH  040%=      5-min Rain = 0
KFR1 250431Z 15010KT 24/10 A3013 RMK A01 T02410098  RH  040%=      5-min Rain = 0
KFR1 250432Z 15012G18KT 24/10 A3013 RMK A01 T02400097  RH  040%=      5-min Rain = 0
KFR1 250433Z 16014G20KT 24/10 A3013 RMK A01 T02400097  RH  040%=      5-min Rain = 0
KFR1 250434Z 15012G17KT 24/10 A3013 RMK A01 T02400098  RH  040%=      5-min Rain = 0
KFR1 250435Z 16011G17KT 24/10 A3013 RMK A01 T02400097  RH  040%=      5-min Rain = 0
KFR1 250436Z 16014KT 24/10 A3013 RMK A01 T02400097  RH  040%=      5-min Rain = 0
KFR1 250437Z 15013KT 24/10 A3013 RMK A01 T02390097  RH  040%=      5-min Rain = 0
KFR1 250438Z 15009KT 24/10 A3013 RMK A01 T02390097  RH  040%=      5-min Rain = 0
KFR1 250439Z 15011G16KT 24/10 A3013 RMK A01 T02390097  RH  040%=      5-min Rain = 0
KFR1 250440Z 16011KT 24/10 A3013 RMK A01 T02380096  RH  041%=      5-min Rain = 0
KFR1 250441Z 15013G18KT 24/10 A3013 RMK A01 T02380096  RH  041%=      5-min Rain = 0
KFR1 250442Z 16011G17KT 24/10 A3013 RMK A01 T02380096  RH  040%=      5-min Rain = 0
KFR1 250443Z 15011KT 24/10 A3013 RMK A01 T02380096  RH  041%=      5-min Rain = 0
KFR1 250444Z 16011KT 24/10 A3013 RMK A01 T02380096  RH  041%=      5-min Rain = 0
KFR1 250445Z 15012G17KT 24/10 A3013 RMK A01 T02370095  RH  040%=      5-min Rain = 0
KFR1 250446Z 16014KT 24/10 A3013 RMK A01 T02370095  RH  040%=      5-min Rain = 0
KFR1 250447Z 15012KT 24/09 A3013 RMK A01 T02370094  RH  040%=      5-min Rain = 0
KFR1 250448Z 16013G18KT 24/09 A3013 RMK A01 T02370094  RH  040%=      5-min Rain = 0
KFR1 250449Z 16012KT 24/09 A3013 RMK A01 T02370093  RH  040%=      5-min Rain = 0
KFR1 250450Z 15012KT 24/09 A3013 RMK A01 T02370093  RH  040%=      5-min Rain = 0
KFR1 250451Z 15010KT 24/09 A3013 RMK A01 T02370093  RH  040%=      5-min Rain = 0
KFR1 250452Z 16013G20KT 24/09 A3013 RMK A01 T02360093  RH  040%=      5-min Rain = 0
KFR1 250453Z 16014KT 24/09 A3013 RMK A01 T02360092  RH  040%=      5-min Rain = 0
KFR1 250454Z 16010G18KT 24/09 A3013 RMK A01 T02360091  RH  040%=      5-min Rain = 0
KFR1 250455Z 15013G19KT 24/09 A3013 RMK A01 T02360091  RH  040%=      5-min Rain = 0
KFR1 250456Z 16011G17KT 24/09 A3013 RMK A01 T02360091  RH  040%=      5-min Rain = 0
KFR1 250457Z 15011G16KT 24/09 A3013 RMK A01 T02350091  RH  040%=      5-min Rain = 0
KFR1 250458Z 15012KT 24/09 A3013 RMK A01 T02350091  RH  040%=      5-min Rain = 0
KFR1 250459Z 16013KT 24/09 A3013 RMK A01 T02350090  RH  040%=      5-min Rain = 0

Page generated in 0.087 seconds.